<?xml version="1.0" encoding="UTF-8" standalone="no" ?>
<gpx xmlns="http://www.topografix.com/GPX/1/1" xmlns:xsi="http://www.w3.org/2001/XMLSchema-instance" xsi:schemaLocation="http://www.topografix.com/GPX/1/1 http://www.topografix.com/GPX/1/1/gpx.xsd" version="1.1" creator="VisuGPX - https://www.visugpx.com">
  <metadata>
    <name>BourStMo_LansleBourg</name>
    <desc><![CDATA[_BourStMo_LansleBourg Dist.76Km  3h02 Asc.2129m.gpx]]></desc>
  </metadata>
  <trk>
    <name><![CDATA[BourStMo LansleBourg on GPSies.com]]></name>
    <cmt><![CDATA[Retour par le col de l'Izeran (encore une fois!)]]></cmt>
    <trkseg>
      <trkpt lat="45.6228" lon="6.77685">
        <ele>808</ele>
        <time>2009-07-05T08:00:15Z</time>
      </trkpt>
      <trkpt lat="45.62282" lon="6.77684">
        <ele>808</ele>
        <time>2009-07-05T08:00:15Z</time>
      </trkpt>
      <trkpt lat="45.62275" lon="6.7767">
        <ele>808</ele>
        <time>2009-07-05T08:00:17Z</time>
      </trkpt>
      <trkpt lat="45.62271" lon="6.77673">
        <ele>808</ele>
        <time>2009-07-05T08:00:18Z</time>
      </trkpt>
      <trkpt lat="45.62309" lon="6.77765">
        <ele>810</ele>
        <time>2009-07-05T08:00:30Z</time>
      </trkpt>
      <trkpt lat="45.62324" lon="6.77821">
        <ele>811</ele>
        <time>2009-07-05T08:00:37Z</time>
      </trkpt>
      <trkpt lat="45.62322" lon="6.77837">
        <ele>811</ele>
        <time>2009-07-05T08:00:39Z</time>
      </trkpt>
      <trkpt lat="45.62326" lon="6.77852">
        <ele>811</ele>
        <time>2009-07-05T08:00:40Z</time>
      </trkpt>
      <trkpt lat="45.62345" lon="6.7785">
        <ele>811</ele>
        <time>2009-07-05T08:00:43Z</time>
      </trkpt>
      <trkpt lat="45.62349" lon="6.77828">
        <ele>811</ele>
        <time>2009-07-05T08:00:46Z</time>
      </trkpt>
      <trkpt lat="45.62381" lon="6.77855">
        <ele>815</ele>
        <time>2009-07-05T08:00:52Z</time>
      </trkpt>
      <trkpt lat="45.6248" lon="6.77971">
        <ele>818</ele>
        <time>2009-07-05T08:01:12Z</time>
      </trkpt>
      <trkpt lat="45.62526" lon="6.78051">
        <ele>816</ele>
        <time>2009-07-05T08:01:24Z</time>
      </trkpt>
      <trkpt lat="45.62545" lon="6.78092">
        <ele>838</ele>
        <time>2009-07-05T08:01:29Z</time>
      </trkpt>
      <trkpt lat="45.62559" lon="6.78138">
        <ele>835</ele>
        <time>2009-07-05T08:01:35Z</time>
      </trkpt>
      <trkpt lat="45.62566" lon="6.78185">
        <ele>835</ele>
        <time>2009-07-05T08:01:40Z</time>
      </trkpt>
      <trkpt lat="45.62563" lon="6.78306">
        <ele>840</ele>
        <time>2009-07-05T08:01:54Z</time>
      </trkpt>
      <trkpt lat="45.62573" lon="6.78359">
        <ele>840</ele>
        <time>2009-07-05T08:02:00Z</time>
      </trkpt>
      <trkpt lat="45.62602" lon="6.78467">
        <ele>828</ele>
        <time>2009-07-05T08:02:13Z</time>
      </trkpt>
      <trkpt lat="45.62624" lon="6.78537">
        <ele>828</ele>
        <time>2009-07-05T08:02:22Z</time>
      </trkpt>
      <trkpt lat="45.62687" lon="6.78618">
        <ele>837</ele>
        <time>2009-07-05T08:02:35Z</time>
      </trkpt>
      <trkpt lat="45.62697" lon="6.78649">
        <ele>835</ele>
        <time>2009-07-05T08:02:39Z</time>
      </trkpt>
      <trkpt lat="45.62701" lon="6.78669">
        <ele>835</ele>
        <time>2009-07-05T08:02:41Z</time>
      </trkpt>
      <trkpt lat="45.62701" lon="6.78712">
        <ele>835</ele>
        <time>2009-07-05T08:02:46Z</time>
      </trkpt>
      <trkpt lat="45.62687" lon="6.78928">
        <ele>844</ele>
        <time>2009-07-05T08:03:11Z</time>
      </trkpt>
      <trkpt lat="45.62665" lon="6.79103">
        <ele>855</ele>
        <time>2009-07-05T08:03:30Z</time>
      </trkpt>
      <trkpt lat="45.62627" lon="6.79281">
        <ele>877</ele>
        <time>2009-07-05T08:03:51Z</time>
      </trkpt>
      <trkpt lat="45.62603" lon="6.79349">
        <ele>861</ele>
        <time>2009-07-05T08:04:00Z</time>
      </trkpt>
      <trkpt lat="45.62592" lon="6.79369">
        <ele>861</ele>
        <time>2009-07-05T08:04:03Z</time>
      </trkpt>
      <trkpt lat="45.62529" lon="6.79447">
        <ele>864</ele>
        <time>2009-07-05T08:04:16Z</time>
      </trkpt>
      <trkpt lat="45.62519" lon="6.79444">
        <ele>864</ele>
        <time>2009-07-05T08:04:18Z</time>
      </trkpt>
      <trkpt lat="45.62509" lon="6.79453">
        <ele>864</ele>
        <time>2009-07-05T08:04:20Z</time>
      </trkpt>
      <trkpt lat="45.62507" lon="6.7947">
        <ele>870</ele>
        <time>2009-07-05T08:04:21Z</time>
      </trkpt>
      <trkpt lat="45.62512" lon="6.79482">
        <ele>870</ele>
        <time>2009-07-05T08:04:23Z</time>
      </trkpt>
      <trkpt lat="45.62398" lon="6.79723">
        <ele>883</ele>
        <time>2009-07-05T08:04:56Z</time>
      </trkpt>
      <trkpt lat="45.62304" lon="6.7992">
        <ele>891</ele>
        <time>2009-07-05T08:05:22Z</time>
      </trkpt>
      <trkpt lat="45.62272" lon="6.79976">
        <ele>893</ele>
        <time>2009-07-05T08:05:30Z</time>
      </trkpt>
      <trkpt lat="45.62241" lon="6.80012">
        <ele>893</ele>
        <time>2009-07-05T08:05:37Z</time>
      </trkpt>
      <trkpt lat="45.62176" lon="6.80151">
        <ele>896</ele>
        <time>2009-07-05T08:05:56Z</time>
      </trkpt>
      <trkpt lat="45.62001" lon="6.80356">
        <ele>893</ele>
        <time>2009-07-05T08:06:32Z</time>
      </trkpt>
      <trkpt lat="45.61965" lon="6.80412">
        <ele>894</ele>
        <time>2009-07-05T08:06:40Z</time>
      </trkpt>
      <trkpt lat="45.61832" lon="6.80711">
        <ele>884</ele>
        <time>2009-07-05T08:07:20Z</time>
      </trkpt>
      <trkpt lat="45.618" lon="6.80795">
        <ele>885</ele>
        <time>2009-07-05T08:07:31Z</time>
      </trkpt>
      <trkpt lat="45.6177" lon="6.80929">
        <ele>875</ele>
        <time>2009-07-05T08:07:46Z</time>
      </trkpt>
      <trkpt lat="45.61722" lon="6.81268">
        <ele>875</ele>
        <time>2009-07-05T08:08:25Z</time>
      </trkpt>
      <trkpt lat="45.6171" lon="6.81439">
        <ele>873</ele>
        <time>2009-07-05T08:08:44Z</time>
      </trkpt>
      <trkpt lat="45.61709" lon="6.8157">
        <ele>865</ele>
        <time>2009-07-05T08:08:59Z</time>
      </trkpt>
      <trkpt lat="45.61697" lon="6.81645">
        <ele>857</ele>
        <time>2009-07-05T08:09:08Z</time>
      </trkpt>
      <trkpt lat="45.61547" lon="6.82118">
        <ele>864</ele>
        <time>2009-07-05T08:10:06Z</time>
      </trkpt>
      <trkpt lat="45.61528" lon="6.82165">
        <ele>851</ele>
        <time>2009-07-05T08:10:12Z</time>
      </trkpt>
      <trkpt lat="45.61505" lon="6.82208">
        <ele>851</ele>
        <time>2009-07-05T08:10:18Z</time>
      </trkpt>
      <trkpt lat="45.61449" lon="6.82282">
        <ele>849</ele>
        <time>2009-07-05T08:10:30Z</time>
      </trkpt>
      <trkpt lat="45.61373" lon="6.82369">
        <ele>843</ele>
        <time>2009-07-05T08:10:46Z</time>
      </trkpt>
      <trkpt lat="45.61317" lon="6.82466">
        <ele>858</ele>
        <time>2009-07-05T08:11:00Z</time>
      </trkpt>
      <trkpt lat="45.61297" lon="6.82516">
        <ele>858</ele>
        <time>2009-07-05T08:11:06Z</time>
      </trkpt>
      <trkpt lat="45.61282" lon="6.82566">
        <ele>849</ele>
        <time>2009-07-05T08:11:12Z</time>
      </trkpt>
      <trkpt lat="45.61275" lon="6.82643">
        <ele>854</ele>
        <time>2009-07-05T08:11:21Z</time>
      </trkpt>
      <trkpt lat="45.61277" lon="6.82683">
        <ele>854</ele>
        <time>2009-07-05T08:11:26Z</time>
      </trkpt>
      <trkpt lat="45.61301" lon="6.82804">
        <ele>880</ele>
        <time>2009-07-05T08:11:40Z</time>
      </trkpt>
      <trkpt lat="45.61304" lon="6.8284">
        <ele>880</ele>
        <time>2009-07-05T08:11:44Z</time>
      </trkpt>
      <trkpt lat="45.61303" lon="6.82875">
        <ele>898</ele>
        <time>2009-07-05T08:11:48Z</time>
      </trkpt>
      <trkpt lat="45.61286" lon="6.82956">
        <ele>855</ele>
        <time>2009-07-05T08:11:57Z</time>
      </trkpt>
      <trkpt lat="45.6121" lon="6.83177">
        <ele>890</ele>
        <time>2009-07-05T08:12:25Z</time>
      </trkpt>
      <trkpt lat="45.61131" lon="6.83436">
        <ele>883</ele>
        <time>2009-07-05T08:12:56Z</time>
      </trkpt>
      <trkpt lat="45.61101" lon="6.83556">
        <ele>875</ele>
        <time>2009-07-05T08:13:11Z</time>
      </trkpt>
      <trkpt lat="45.61073" lon="6.83641">
        <ele>902</ele>
        <time>2009-07-05T08:13:21Z</time>
      </trkpt>
      <trkpt lat="45.61052" lon="6.83671">
        <ele>902</ele>
        <time>2009-07-05T08:13:26Z</time>
      </trkpt>
      <trkpt lat="45.61018" lon="6.83694">
        <ele>868</ele>
        <time>2009-07-05T08:13:32Z</time>
      </trkpt>
      <trkpt lat="45.60957" lon="6.83753">
        <ele>849</ele>
        <time>2009-07-05T08:13:44Z</time>
      </trkpt>
      <trkpt lat="45.60948" lon="6.83785">
        <ele>849</ele>
        <time>2009-07-05T08:13:48Z</time>
      </trkpt>
      <trkpt lat="45.60945" lon="6.83803">
        <ele>866</ele>
        <time>2009-07-05T08:13:50Z</time>
      </trkpt>
      <trkpt lat="45.60947" lon="6.83822">
        <ele>866</ele>
        <time>2009-07-05T08:13:52Z</time>
      </trkpt>
      <trkpt lat="45.60941" lon="6.83842">
        <ele>866</ele>
        <time>2009-07-05T08:13:54Z</time>
      </trkpt>
      <trkpt lat="45.60913" lon="6.83886">
        <ele>889</ele>
        <time>2009-07-05T08:14:01Z</time>
      </trkpt>
      <trkpt lat="45.60891" lon="6.83933">
        <ele>889</ele>
        <time>2009-07-05T08:14:07Z</time>
      </trkpt>
      <trkpt lat="45.60855" lon="6.84046">
        <ele>882</ele>
        <time>2009-07-05T08:14:21Z</time>
      </trkpt>
      <trkpt lat="45.60811" lon="6.84253">
        <ele>903</ele>
        <time>2009-07-05T08:14:45Z</time>
      </trkpt>
      <trkpt lat="45.60811" lon="6.84295">
        <ele>910</ele>
        <time>2009-07-05T08:14:50Z</time>
      </trkpt>
      <trkpt lat="45.60772" lon="6.84466">
        <ele>882</ele>
        <time>2009-07-05T08:15:10Z</time>
      </trkpt>
      <trkpt lat="45.60673" lon="6.84782">
        <ele>890</ele>
        <time>2009-07-05T08:15:49Z</time>
      </trkpt>
      <trkpt lat="45.60663" lon="6.84835">
        <ele>896</ele>
        <time>2009-07-05T08:15:55Z</time>
      </trkpt>
      <trkpt lat="45.60651" lon="6.84945">
        <ele>907</ele>
        <time>2009-07-05T08:16:08Z</time>
      </trkpt>
      <trkpt lat="45.60624" lon="6.85033">
        <ele>900</ele>
        <time>2009-07-05T08:16:18Z</time>
      </trkpt>
      <trkpt lat="45.60604" lon="6.8513">
        <ele>889</ele>
        <time>2009-07-05T08:16:30Z</time>
      </trkpt>
      <trkpt lat="45.60589" lon="6.85275">
        <ele>891</ele>
        <time>2009-07-05T08:16:46Z</time>
      </trkpt>
      <trkpt lat="45.60566" lon="6.85446">
        <ele>898</ele>
        <time>2009-07-05T08:17:06Z</time>
      </trkpt>
      <trkpt lat="45.60559" lon="6.85472">
        <ele>903</ele>
        <time>2009-07-05T08:17:09Z</time>
      </trkpt>
      <trkpt lat="45.60514" lon="6.85558">
        <ele>885</ele>
        <time>2009-07-05T08:17:21Z</time>
      </trkpt>
      <trkpt lat="45.60411" lon="6.85716">
        <ele>892</ele>
        <time>2009-07-05T08:17:45Z</time>
      </trkpt>
      <trkpt lat="45.60377" lon="6.85779">
        <ele>892</ele>
        <time>2009-07-05T08:17:54Z</time>
      </trkpt>
      <trkpt lat="45.60362" lon="6.85822">
        <ele>893</ele>
        <time>2009-07-05T08:17:59Z</time>
      </trkpt>
      <trkpt lat="45.60351" lon="6.85869">
        <ele>893</ele>
        <time>2009-07-05T08:18:05Z</time>
      </trkpt>
      <trkpt lat="45.60345" lon="6.8593">
        <ele>893</ele>
        <time>2009-07-05T08:18:12Z</time>
      </trkpt>
      <trkpt lat="45.60349" lon="6.86053">
        <ele>895</ele>
        <time>2009-07-05T08:18:26Z</time>
      </trkpt>
      <trkpt lat="45.60347" lon="6.86104">
        <ele>895</ele>
        <time>2009-07-05T08:18:31Z</time>
      </trkpt>
      <trkpt lat="45.60271" lon="6.86465">
        <ele>897</ele>
        <time>2009-07-05T08:19:14Z</time>
      </trkpt>
      <trkpt lat="45.60245" lon="6.86523">
        <ele>897</ele>
        <time>2009-07-05T08:19:21Z</time>
      </trkpt>
      <trkpt lat="45.60213" lon="6.86561">
        <ele>904</ele>
        <time>2009-07-05T08:19:28Z</time>
      </trkpt>
      <trkpt lat="45.60059" lon="6.86719">
        <ele>914</ele>
        <time>2009-07-05T08:19:58Z</time>
      </trkpt>
      <trkpt lat="45.6002" lon="6.86771">
        <ele>902</ele>
        <time>2009-07-05T08:20:07Z</time>
      </trkpt>
      <trkpt lat="45.59998" lon="6.86811">
        <ele>907</ele>
        <time>2009-07-05T08:20:13Z</time>
      </trkpt>
      <trkpt lat="45.59962" lon="6.86955">
        <ele>922</ele>
        <time>2009-07-05T08:20:30Z</time>
      </trkpt>
      <trkpt lat="45.59898" lon="6.87138">
        <ele>920</ele>
        <time>2009-07-05T08:20:53Z</time>
      </trkpt>
      <trkpt lat="45.59841" lon="6.87353">
        <ele>904</ele>
        <time>2009-07-05T08:21:18Z</time>
      </trkpt>
      <trkpt lat="45.59782" lon="6.87606">
        <ele>906</ele>
        <time>2009-07-05T08:21:48Z</time>
      </trkpt>
      <trkpt lat="45.59731" lon="6.87912">
        <ele>941</ele>
        <time>2009-07-05T08:22:23Z</time>
      </trkpt>
      <trkpt lat="45.59723" lon="6.87942">
        <ele>941</ele>
        <time>2009-07-05T08:22:27Z</time>
      </trkpt>
      <trkpt lat="45.59691" lon="6.87996">
        <ele>929</ele>
        <time>2009-07-05T08:22:35Z</time>
      </trkpt>
      <trkpt lat="45.59663" lon="6.88024">
        <ele>929</ele>
        <time>2009-07-05T08:22:40Z</time>
      </trkpt>
      <trkpt lat="45.59561" lon="6.88107">
        <ele>945</ele>
        <time>2009-07-05T08:22:59Z</time>
      </trkpt>
      <trkpt lat="45.59552" lon="6.8811">
        <ele>945</ele>
        <time>2009-07-05T08:23:01Z</time>
      </trkpt>
      <trkpt lat="45.59527" lon="6.88111">
        <ele>955</ele>
        <time>2009-07-05T08:23:05Z</time>
      </trkpt>
      <trkpt lat="45.59501" lon="6.88087">
        <ele>955</ele>
        <time>2009-07-05T08:23:10Z</time>
      </trkpt>
      <trkpt lat="45.59472" lon="6.88077">
        <ele>955</ele>
        <time>2009-07-05T08:23:15Z</time>
      </trkpt>
      <trkpt lat="45.59397" lon="6.88081">
        <ele>962</ele>
        <time>2009-07-05T08:23:27Z</time>
      </trkpt>
      <trkpt lat="45.59331" lon="6.881">
        <ele>963</ele>
        <time>2009-07-05T08:23:37Z</time>
      </trkpt>
      <trkpt lat="45.59283" lon="6.88097">
        <ele>968</ele>
        <time>2009-07-05T08:23:45Z</time>
      </trkpt>
      <trkpt lat="45.59251" lon="6.88084">
        <ele>968</ele>
        <time>2009-07-05T08:23:50Z</time>
      </trkpt>
      <trkpt lat="45.5924" lon="6.88092">
        <ele>968</ele>
        <time>2009-07-05T08:23:52Z</time>
      </trkpt>
      <trkpt lat="45.5924" lon="6.88102">
        <ele>968</ele>
        <time>2009-07-05T08:23:53Z</time>
      </trkpt>
      <trkpt lat="45.59246" lon="6.88111">
        <ele>968</ele>
        <time>2009-07-05T08:23:55Z</time>
      </trkpt>
      <trkpt lat="45.59262" lon="6.88124">
        <ele>968</ele>
        <time>2009-07-05T08:23:58Z</time>
      </trkpt>
      <trkpt lat="45.59285" lon="6.88134">
        <ele>1000</ele>
        <time>2009-07-05T08:24:02Z</time>
      </trkpt>
      <trkpt lat="45.59327" lon="6.88145">
        <ele>993</ele>
        <time>2009-07-05T08:24:08Z</time>
      </trkpt>
      <trkpt lat="45.59443" lon="6.88151">
        <ele>989</ele>
        <time>2009-07-05T08:24:27Z</time>
      </trkpt>
      <trkpt lat="45.59505" lon="6.88204">
        <ele>980</ele>
        <time>2009-07-05T08:24:39Z</time>
      </trkpt>
      <trkpt lat="45.59527" lon="6.88216">
        <ele>1015</ele>
        <time>2009-07-05T08:24:42Z</time>
      </trkpt>
      <trkpt lat="45.59601" lon="6.88226">
        <ele>1010</ele>
        <time>2009-07-05T08:24:54Z</time>
      </trkpt>
      <trkpt lat="45.59606" lon="6.88238">
        <ele>1010</ele>
        <time>2009-07-05T08:24:56Z</time>
      </trkpt>
      <trkpt lat="45.59603" lon="6.88256">
        <ele>1010</ele>
        <time>2009-07-05T08:24:58Z</time>
      </trkpt>
      <trkpt lat="45.59595" lon="6.8826">
        <ele>1010</ele>
        <time>2009-07-05T08:24:59Z</time>
      </trkpt>
      <trkpt lat="45.59509" lon="6.88258">
        <ele>1015</ele>
        <time>2009-07-05T08:25:13Z</time>
      </trkpt>
      <trkpt lat="45.59456" lon="6.88237">
        <ele>1024</ele>
        <time>2009-07-05T08:25:22Z</time>
      </trkpt>
      <trkpt lat="45.59377" lon="6.88233">
        <ele>1024</ele>
        <time>2009-07-05T08:25:34Z</time>
      </trkpt>
      <trkpt lat="45.59334" lon="6.88237">
        <ele>1028</ele>
        <time>2009-07-05T08:25:41Z</time>
      </trkpt>
      <trkpt lat="45.59298" lon="6.8825">
        <ele>1028</ele>
        <time>2009-07-05T08:25:47Z</time>
      </trkpt>
      <trkpt lat="45.59271" lon="6.88253">
        <ele>1028</ele>
        <time>2009-07-05T08:25:52Z</time>
      </trkpt>
      <trkpt lat="45.59143" lon="6.88253">
        <ele>1034</ele>
        <time>2009-07-05T08:26:12Z</time>
      </trkpt>
      <trkpt lat="45.59087" lon="6.8827">
        <ele>1032</ele>
        <time>2009-07-05T08:26:21Z</time>
      </trkpt>
      <trkpt lat="45.59051" lon="6.88297">
        <ele>1046</ele>
        <time>2009-07-05T08:26:28Z</time>
      </trkpt>
      <trkpt lat="45.59027" lon="6.8834">
        <ele>1042</ele>
        <time>2009-07-05T08:26:34Z</time>
      </trkpt>
      <trkpt lat="45.59021" lon="6.88402">
        <ele>1054</ele>
        <time>2009-07-05T08:26:41Z</time>
      </trkpt>
      <trkpt lat="45.59006" lon="6.88414">
        <ele>1054</ele>
        <time>2009-07-05T08:26:44Z</time>
      </trkpt>
      <trkpt lat="45.58986" lon="6.884">
        <ele>1054</ele>
        <time>2009-07-05T08:26:47Z</time>
      </trkpt>
      <trkpt lat="45.58939" lon="6.88346">
        <ele>1052</ele>
        <time>2009-07-05T08:26:57Z</time>
      </trkpt>
      <trkpt lat="45.58912" lon="6.8833">
        <ele>1052</ele>
        <time>2009-07-05T08:27:02Z</time>
      </trkpt>
      <trkpt lat="45.589" lon="6.88328">
        <ele>1052</ele>
        <time>2009-07-05T08:27:04Z</time>
      </trkpt>
      <trkpt lat="45.5887" lon="6.88344">
        <ele>1052</ele>
        <time>2009-07-05T08:27:09Z</time>
      </trkpt>
      <trkpt lat="45.58849" lon="6.88409">
        <ele>1065</ele>
        <time>2009-07-05T08:27:17Z</time>
      </trkpt>
      <trkpt lat="45.58835" lon="6.88433">
        <ele>1065</ele>
        <time>2009-07-05T08:27:20Z</time>
      </trkpt>
      <trkpt lat="45.58815" lon="6.88456">
        <ele>1065</ele>
        <time>2009-07-05T08:27:24Z</time>
      </trkpt>
      <trkpt lat="45.58783" lon="6.88482">
        <ele>1082</ele>
        <time>2009-07-05T08:27:30Z</time>
      </trkpt>
      <trkpt lat="45.58753" lon="6.88485">
        <ele>1082</ele>
        <time>2009-07-05T08:27:35Z</time>
      </trkpt>
      <trkpt lat="45.58738" lon="6.88481">
        <ele>1082</ele>
        <time>2009-07-05T08:27:38Z</time>
      </trkpt>
      <trkpt lat="45.58662" lon="6.88439">
        <ele>1078</ele>
        <time>2009-07-05T08:27:51Z</time>
      </trkpt>
      <trkpt lat="45.58613" lon="6.88427">
        <ele>1082</ele>
        <time>2009-07-05T08:27:59Z</time>
      </trkpt>
      <trkpt lat="45.58598" lon="6.8843">
        <ele>1082</ele>
        <time>2009-07-05T08:28:01Z</time>
      </trkpt>
      <trkpt lat="45.58587" lon="6.88439">
        <ele>1082</ele>
        <time>2009-07-05T08:28:03Z</time>
      </trkpt>
      <trkpt lat="45.58531" lon="6.88498">
        <ele>1099</ele>
        <time>2009-07-05T08:28:14Z</time>
      </trkpt>
      <trkpt lat="45.58508" lon="6.88502">
        <ele>1099</ele>
        <time>2009-07-05T08:28:18Z</time>
      </trkpt>
      <trkpt lat="45.58384" lon="6.88485">
        <ele>1110</ele>
        <time>2009-07-05T08:28:38Z</time>
      </trkpt>
      <trkpt lat="45.58348" lon="6.88471">
        <ele>1137</ele>
        <time>2009-07-05T08:28:44Z</time>
      </trkpt>
      <trkpt lat="45.58273" lon="6.88425">
        <ele>1125</ele>
        <time>2009-07-05T08:28:57Z</time>
      </trkpt>
      <trkpt lat="45.58189" lon="6.88403">
        <ele>1134</ele>
        <time>2009-07-05T08:29:11Z</time>
      </trkpt>
      <trkpt lat="45.58142" lon="6.88382">
        <ele>1134</ele>
        <time>2009-07-05T08:29:18Z</time>
      </trkpt>
      <trkpt lat="45.58092" lon="6.88374">
        <ele>1122</ele>
        <time>2009-07-05T08:29:26Z</time>
      </trkpt>
      <trkpt lat="45.57957" lon="6.88377">
        <ele>1193</ele>
        <time>2009-07-05T08:29:48Z</time>
      </trkpt>
      <trkpt lat="45.57944" lon="6.8837">
        <ele>1156</ele>
        <time>2009-07-05T08:29:50Z</time>
      </trkpt>
      <trkpt lat="45.5792" lon="6.88342">
        <ele>1156</ele>
        <time>2009-07-05T08:29:55Z</time>
      </trkpt>
      <trkpt lat="45.57838" lon="6.88226">
        <ele>1164</ele>
        <time>2009-07-05T08:30:14Z</time>
      </trkpt>
      <trkpt lat="45.5783" lon="6.88223">
        <ele>1164</ele>
        <time>2009-07-05T08:30:15Z</time>
      </trkpt>
      <trkpt lat="45.57827" lon="6.88233">
        <ele>1164</ele>
        <time>2009-07-05T08:30:16Z</time>
      </trkpt>
      <trkpt lat="45.57833" lon="6.88254">
        <ele>1164</ele>
        <time>2009-07-05T08:30:19Z</time>
      </trkpt>
      <trkpt lat="45.57912" lon="6.88387">
        <ele>1193</ele>
        <time>2009-07-05T08:30:38Z</time>
      </trkpt>
      <trkpt lat="45.57926" lon="6.88419">
        <ele>1193</ele>
        <time>2009-07-05T08:30:43Z</time>
      </trkpt>
      <trkpt lat="45.57958" lon="6.88449">
        <ele>1193</ele>
        <time>2009-07-05T08:30:49Z</time>
      </trkpt>
      <trkpt lat="45.57986" lon="6.88465">
        <ele>1180</ele>
        <time>2009-07-05T08:30:54Z</time>
      </trkpt>
      <trkpt lat="45.57987" lon="6.88477">
        <ele>1180</ele>
        <time>2009-07-05T08:30:55Z</time>
      </trkpt>
      <trkpt lat="45.57978" lon="6.88483">
        <ele>1180</ele>
        <time>2009-07-05T08:30:56Z</time>
      </trkpt>
      <trkpt lat="45.57965" lon="6.88482">
        <ele>1180</ele>
        <time>2009-07-05T08:30:59Z</time>
      </trkpt>
      <trkpt lat="45.57935" lon="6.88463">
        <ele>1225</ele>
        <time>2009-07-05T08:31:04Z</time>
      </trkpt>
      <trkpt lat="45.57834" lon="6.88317">
        <ele>1201</ele>
        <time>2009-07-05T08:31:27Z</time>
      </trkpt>
      <trkpt lat="45.5781" lon="6.88297">
        <ele>1201</ele>
        <time>2009-07-05T08:31:31Z</time>
      </trkpt>
      <trkpt lat="45.57791" lon="6.88284">
        <ele>1188</ele>
        <time>2009-07-05T08:31:35Z</time>
      </trkpt>
      <trkpt lat="45.57769" lon="6.88277">
        <ele>1188</ele>
        <time>2009-07-05T08:31:38Z</time>
      </trkpt>
      <trkpt lat="45.57728" lon="6.8828">
        <ele>1188</ele>
        <time>2009-07-05T08:31:45Z</time>
      </trkpt>
      <trkpt lat="45.57651" lon="6.88321">
        <ele>1206</ele>
        <time>2009-07-05T08:31:58Z</time>
      </trkpt>
      <trkpt lat="45.57612" lon="6.88394">
        <ele>1220</ele>
        <time>2009-07-05T08:32:08Z</time>
      </trkpt>
      <trkpt lat="45.57588" lon="6.88422">
        <ele>1220</ele>
        <time>2009-07-05T08:32:13Z</time>
      </trkpt>
      <trkpt lat="45.57556" lon="6.88428">
        <ele>1220</ele>
        <time>2009-07-05T08:32:18Z</time>
      </trkpt>
      <trkpt lat="45.57511" lon="6.88426">
        <ele>1222</ele>
        <time>2009-07-05T08:32:26Z</time>
      </trkpt>
      <trkpt lat="45.57488" lon="6.88419">
        <ele>1222</ele>
        <time>2009-07-05T08:32:29Z</time>
      </trkpt>
      <trkpt lat="45.57449" lon="6.88423">
        <ele>1224</ele>
        <time>2009-07-05T08:32:36Z</time>
      </trkpt>
      <trkpt lat="45.57429" lon="6.8844">
        <ele>1224</ele>
        <time>2009-07-05T08:32:39Z</time>
      </trkpt>
      <trkpt lat="45.5738" lon="6.88503">
        <ele>1239</ele>
        <time>2009-07-05T08:32:50Z</time>
      </trkpt>
      <trkpt lat="45.57346" lon="6.88539">
        <ele>1237</ele>
        <time>2009-07-05T08:32:57Z</time>
      </trkpt>
      <trkpt lat="45.57283" lon="6.88586">
        <ele>1248</ele>
        <time>2009-07-05T08:33:08Z</time>
      </trkpt>
      <trkpt lat="45.57252" lon="6.88603">
        <ele>1248</ele>
        <time>2009-07-05T08:33:13Z</time>
      </trkpt>
      <trkpt lat="45.5711" lon="6.88656">
        <ele>1249</ele>
        <time>2009-07-05T08:33:37Z</time>
      </trkpt>
      <trkpt lat="45.57059" lon="6.88685">
        <ele>1249</ele>
        <time>2009-07-05T08:33:46Z</time>
      </trkpt>
      <trkpt lat="45.57021" lon="6.88719">
        <ele>1250</ele>
        <time>2009-07-05T08:33:53Z</time>
      </trkpt>
      <trkpt lat="45.56984" lon="6.88771">
        <ele>1250</ele>
        <time>2009-07-05T08:34:01Z</time>
      </trkpt>
      <trkpt lat="45.56906" lon="6.88851">
        <ele>1264</ele>
        <time>2009-07-05T08:34:17Z</time>
      </trkpt>
      <trkpt lat="45.56864" lon="6.88874">
        <ele>1255</ele>
        <time>2009-07-05T08:34:24Z</time>
      </trkpt>
      <trkpt lat="45.56786" lon="6.88906">
        <ele>1277</ele>
        <time>2009-07-05T08:34:37Z</time>
      </trkpt>
      <trkpt lat="45.5674" lon="6.88918">
        <ele>1277</ele>
        <time>2009-07-05T08:34:44Z</time>
      </trkpt>
      <trkpt lat="45.56703" lon="6.88917">
        <ele>1258</ele>
        <time>2009-07-05T08:34:50Z</time>
      </trkpt>
      <trkpt lat="45.56671" lon="6.88932">
        <ele>1258</ele>
        <time>2009-07-05T08:34:56Z</time>
      </trkpt>
      <trkpt lat="45.56657" lon="6.88948">
        <ele>1258</ele>
        <time>2009-07-05T08:34:58Z</time>
      </trkpt>
      <trkpt lat="45.56596" lon="6.89052">
        <ele>1306</ele>
        <time>2009-07-05T08:35:14Z</time>
      </trkpt>
      <trkpt lat="45.56579" lon="6.89074">
        <ele>1306</ele>
        <time>2009-07-05T08:35:17Z</time>
      </trkpt>
      <trkpt lat="45.56553" lon="6.89093">
        <ele>1306</ele>
        <time>2009-07-05T08:35:22Z</time>
      </trkpt>
      <trkpt lat="45.5648" lon="6.89131">
        <ele>1326</ele>
        <time>2009-07-05T08:35:34Z</time>
      </trkpt>
      <trkpt lat="45.56455" lon="6.8915">
        <ele>1293</ele>
        <time>2009-07-05T08:35:39Z</time>
      </trkpt>
      <trkpt lat="45.56357" lon="6.89244">
        <ele>1322</ele>
        <time>2009-07-05T08:35:58Z</time>
      </trkpt>
      <trkpt lat="45.56274" lon="6.89275">
        <ele>1313</ele>
        <time>2009-07-05T08:36:12Z</time>
      </trkpt>
      <trkpt lat="45.56254" lon="6.89288">
        <ele>1313</ele>
        <time>2009-07-05T08:36:15Z</time>
      </trkpt>
      <trkpt lat="45.56229" lon="6.89307">
        <ele>1349</ele>
        <time>2009-07-05T08:36:20Z</time>
      </trkpt>
      <trkpt lat="45.56141" lon="6.89402">
        <ele>1347</ele>
        <time>2009-07-05T08:36:37Z</time>
      </trkpt>
      <trkpt lat="45.56094" lon="6.89438">
        <ele>1333</ele>
        <time>2009-07-05T08:36:46Z</time>
      </trkpt>
      <trkpt lat="45.56071" lon="6.89444">
        <ele>1333</ele>
        <time>2009-07-05T08:36:50Z</time>
      </trkpt>
      <trkpt lat="45.56009" lon="6.89446">
        <ele>1318</ele>
        <time>2009-07-05T08:37:00Z</time>
      </trkpt>
      <trkpt lat="45.55962" lon="6.89469">
        <ele>1345</ele>
        <time>2009-07-05T08:37:07Z</time>
      </trkpt>
      <trkpt lat="45.55943" lon="6.89503">
        <ele>1313</ele>
        <time>2009-07-05T08:37:12Z</time>
      </trkpt>
      <trkpt lat="45.55904" lon="6.89631">
        <ele>1356</ele>
        <time>2009-07-05T08:37:28Z</time>
      </trkpt>
      <trkpt lat="45.55886" lon="6.89668">
        <ele>1356</ele>
        <time>2009-07-05T08:37:33Z</time>
      </trkpt>
      <trkpt lat="45.55872" lon="6.89688">
        <ele>1313</ele>
        <time>2009-07-05T08:37:36Z</time>
      </trkpt>
      <trkpt lat="45.55831" lon="6.89729">
        <ele>1344</ele>
        <time>2009-07-05T08:37:44Z</time>
      </trkpt>
      <trkpt lat="45.55788" lon="6.89806">
        <ele>1344</ele>
        <time>2009-07-05T08:37:55Z</time>
      </trkpt>
      <trkpt lat="45.55736" lon="6.89871">
        <ele>1344</ele>
        <time>2009-07-05T08:38:06Z</time>
      </trkpt>
      <trkpt lat="45.55715" lon="6.89907">
        <ele>1363</ele>
        <time>2009-07-05T08:38:12Z</time>
      </trkpt>
      <trkpt lat="45.5562" lon="6.90044">
        <ele>1363</ele>
        <time>2009-07-05T08:38:33Z</time>
      </trkpt>
      <trkpt lat="45.55569" lon="6.90099">
        <ele>1363</ele>
        <time>2009-07-05T08:38:43Z</time>
      </trkpt>
      <trkpt lat="45.55534" lon="6.9012">
        <ele>1341</ele>
        <time>2009-07-05T08:38:50Z</time>
      </trkpt>
      <trkpt lat="45.55471" lon="6.90139">
        <ele>1383</ele>
        <time>2009-07-05T08:39:00Z</time>
      </trkpt>
      <trkpt lat="45.55414" lon="6.90143">
        <ele>1362</ele>
        <time>2009-07-05T08:39:09Z</time>
      </trkpt>
      <trkpt lat="45.55293" lon="6.90131">
        <ele>1386</ele>
        <time>2009-07-05T08:39:28Z</time>
      </trkpt>
      <trkpt lat="45.55242" lon="6.90141">
        <ele>1379</ele>
        <time>2009-07-05T08:39:37Z</time>
      </trkpt>
      <trkpt lat="45.55222" lon="6.90152">
        <ele>1379</ele>
        <time>2009-07-05T08:39:40Z</time>
      </trkpt>
      <trkpt lat="45.55197" lon="6.90171">
        <ele>1361</ele>
        <time>2009-07-05T08:39:45Z</time>
      </trkpt>
      <trkpt lat="45.55106" lon="6.90262">
        <ele>1371</ele>
        <time>2009-07-05T08:40:02Z</time>
      </trkpt>
      <trkpt lat="45.54999" lon="6.90376">
        <ele>1410</ele>
        <time>2009-07-05T08:40:24Z</time>
      </trkpt>
      <trkpt lat="45.54952" lon="6.90441">
        <ele>1362</ele>
        <time>2009-07-05T08:40:34Z</time>
      </trkpt>
      <trkpt lat="45.54915" lon="6.90511">
        <ele>1392</ele>
        <time>2009-07-05T08:40:44Z</time>
      </trkpt>
      <trkpt lat="45.54852" lon="6.90616">
        <ele>1386</ele>
        <time>2009-07-05T08:41:00Z</time>
      </trkpt>
      <trkpt lat="45.54796" lon="6.90676">
        <ele>1426</ele>
        <time>2009-07-05T08:41:11Z</time>
      </trkpt>
      <trkpt lat="45.54769" lon="6.90697">
        <ele>1400</ele>
        <time>2009-07-05T08:41:16Z</time>
      </trkpt>
      <trkpt lat="45.54726" lon="6.90716">
        <ele>1443</ele>
        <time>2009-07-05T08:41:23Z</time>
      </trkpt>
      <trkpt lat="45.54652" lon="6.9073">
        <ele>1422</ele>
        <time>2009-07-05T08:41:35Z</time>
      </trkpt>
      <trkpt lat="45.54588" lon="6.90764">
        <ele>1405</ele>
        <time>2009-07-05T08:41:46Z</time>
      </trkpt>
      <trkpt lat="45.5452" lon="6.90785">
        <ele>1391</ele>
        <time>2009-07-05T08:41:57Z</time>
      </trkpt>
      <trkpt lat="45.54468" lon="6.90819">
        <ele>1432</ele>
        <time>2009-07-05T08:42:06Z</time>
      </trkpt>
      <trkpt lat="45.54383" lon="6.90864">
        <ele>1413</ele>
        <time>2009-07-05T08:42:21Z</time>
      </trkpt>
      <trkpt lat="45.54344" lon="6.90888">
        <ele>1440</ele>
        <time>2009-07-05T08:42:27Z</time>
      </trkpt>
      <trkpt lat="45.54282" lon="6.90939">
        <ele>1417</ele>
        <time>2009-07-05T08:42:39Z</time>
      </trkpt>
      <trkpt lat="45.54177" lon="6.91044">
        <ele>1462</ele>
        <time>2009-07-05T08:42:59Z</time>
      </trkpt>
      <trkpt lat="45.54135" lon="6.91076">
        <ele>1462</ele>
        <time>2009-07-05T08:43:07Z</time>
      </trkpt>
      <trkpt lat="45.54107" lon="6.91085">
        <ele>1455</ele>
        <time>2009-07-05T08:43:12Z</time>
      </trkpt>
      <trkpt lat="45.54086" lon="6.91086">
        <ele>1455</ele>
        <time>2009-07-05T08:43:15Z</time>
      </trkpt>
      <trkpt lat="45.54039" lon="6.91067">
        <ele>1453</ele>
        <time>2009-07-05T08:43:23Z</time>
      </trkpt>
      <trkpt lat="45.53924" lon="6.91138">
        <ele>1495</ele>
        <time>2009-07-05T08:43:43Z</time>
      </trkpt>
      <trkpt lat="45.53893" lon="6.91147">
        <ele>1495</ele>
        <time>2009-07-05T08:43:48Z</time>
      </trkpt>
      <trkpt lat="45.53842" lon="6.91147">
        <ele>1481</ele>
        <time>2009-07-05T08:43:56Z</time>
      </trkpt>
      <trkpt lat="45.53814" lon="6.91152">
        <ele>1481</ele>
        <time>2009-07-05T08:44:01Z</time>
      </trkpt>
      <trkpt lat="45.53785" lon="6.91166">
        <ele>1455</ele>
        <time>2009-07-05T08:44:06Z</time>
      </trkpt>
      <trkpt lat="45.53735" lon="6.91221">
        <ele>1484</ele>
        <time>2009-07-05T08:44:16Z</time>
      </trkpt>
      <trkpt lat="45.53715" lon="6.91255">
        <ele>1484</ele>
        <time>2009-07-05T08:44:21Z</time>
      </trkpt>
      <trkpt lat="45.53695" lon="6.91291">
        <ele>1451</ele>
        <time>2009-07-05T08:44:26Z</time>
      </trkpt>
      <trkpt lat="45.5365" lon="6.91406">
        <ele>1491</ele>
        <time>2009-07-05T08:44:41Z</time>
      </trkpt>
      <trkpt lat="45.53634" lon="6.91424">
        <ele>1491</ele>
        <time>2009-07-05T08:44:44Z</time>
      </trkpt>
      <trkpt lat="45.53619" lon="6.91428">
        <ele>1485</ele>
        <time>2009-07-05T08:44:46Z</time>
      </trkpt>
      <trkpt lat="45.53566" lon="6.91417">
        <ele>1485</ele>
        <time>2009-07-05T08:44:55Z</time>
      </trkpt>
      <trkpt lat="45.53533" lon="6.91419">
        <ele>1478</ele>
        <time>2009-07-05T08:45:00Z</time>
      </trkpt>
      <trkpt lat="45.53475" lon="6.91439">
        <ele>1478</ele>
        <time>2009-07-05T08:45:10Z</time>
      </trkpt>
      <trkpt lat="45.5342" lon="6.91476">
        <ele>1514</ele>
        <time>2009-07-05T08:45:19Z</time>
      </trkpt>
      <trkpt lat="45.53397" lon="6.91484">
        <ele>1514</ele>
        <time>2009-07-05T08:45:23Z</time>
      </trkpt>
      <trkpt lat="45.5325" lon="6.91496">
        <ele>1510</ele>
        <time>2009-07-05T08:45:47Z</time>
      </trkpt>
      <trkpt lat="45.53228" lon="6.91505">
        <ele>1510</ele>
        <time>2009-07-05T08:45:50Z</time>
      </trkpt>
      <trkpt lat="45.53208" lon="6.91521">
        <ele>1502</ele>
        <time>2009-07-05T08:45:54Z</time>
      </trkpt>
      <trkpt lat="45.53167" lon="6.91566">
        <ele>1542</ele>
        <time>2009-07-05T08:46:02Z</time>
      </trkpt>
      <trkpt lat="45.53152" lon="6.91573">
        <ele>1542</ele>
        <time>2009-07-05T08:46:05Z</time>
      </trkpt>
      <trkpt lat="45.53141" lon="6.91572">
        <ele>1542</ele>
        <time>2009-07-05T08:46:07Z</time>
      </trkpt>
      <trkpt lat="45.53128" lon="6.91558">
        <ele>1542</ele>
        <time>2009-07-05T08:46:09Z</time>
      </trkpt>
      <trkpt lat="45.53093" lon="6.91498">
        <ele>1530</ele>
        <time>2009-07-05T08:46:18Z</time>
      </trkpt>
      <trkpt lat="45.5308" lon="6.91488">
        <ele>1530</ele>
        <time>2009-07-05T08:46:20Z</time>
      </trkpt>
      <trkpt lat="45.53037" lon="6.91481">
        <ele>1557</ele>
        <time>2009-07-05T08:46:27Z</time>
      </trkpt>
      <trkpt lat="45.53005" lon="6.91456">
        <ele>1521</ele>
        <time>2009-07-05T08:46:33Z</time>
      </trkpt>
      <trkpt lat="45.52947" lon="6.91392">
        <ele>1547</ele>
        <time>2009-07-05T08:46:45Z</time>
      </trkpt>
      <trkpt lat="45.52896" lon="6.91359">
        <ele>1523</ele>
        <time>2009-07-05T08:46:54Z</time>
      </trkpt>
      <trkpt lat="45.52729" lon="6.9131">
        <ele>1572</ele>
        <time>2009-07-05T08:47:21Z</time>
      </trkpt>
      <trkpt lat="45.52676" lon="6.91288">
        <ele>1548</ele>
        <time>2009-07-05T08:47:30Z</time>
      </trkpt>
      <trkpt lat="45.52606" lon="6.91267">
        <ele>1559</ele>
        <time>2009-07-05T08:47:41Z</time>
      </trkpt>
      <trkpt lat="45.52452" lon="6.91262">
        <ele>1544</ele>
        <time>2009-07-05T08:48:06Z</time>
      </trkpt>
      <trkpt lat="45.52403" lon="6.91283">
        <ele>1544</ele>
        <time>2009-07-05T08:48:14Z</time>
      </trkpt>
      <trkpt lat="45.52309" lon="6.91344">
        <ele>1562</ele>
        <time>2009-07-05T08:48:31Z</time>
      </trkpt>
      <trkpt lat="45.52235" lon="6.91377">
        <ele>1593</ele>
        <time>2009-07-05T08:48:43Z</time>
      </trkpt>
      <trkpt lat="45.52159" lon="6.91396">
        <ele>1586</ele>
        <time>2009-07-05T08:48:56Z</time>
      </trkpt>
      <trkpt lat="45.52132" lon="6.91383">
        <ele>1586</ele>
        <time>2009-07-05T08:49:00Z</time>
      </trkpt>
      <trkpt lat="45.52083" lon="6.91332">
        <ele>1569</ele>
        <time>2009-07-05T08:49:10Z</time>
      </trkpt>
      <trkpt lat="45.52058" lon="6.91329">
        <ele>1569</ele>
        <time>2009-07-05T08:49:14Z</time>
      </trkpt>
      <trkpt lat="45.52045" lon="6.91333">
        <ele>1569</ele>
        <time>2009-07-05T08:49:16Z</time>
      </trkpt>
      <trkpt lat="45.52022" lon="6.91353">
        <ele>1556</ele>
        <time>2009-07-05T08:49:20Z</time>
      </trkpt>
      <trkpt lat="45.52004" lon="6.91394">
        <ele>1578</ele>
        <time>2009-07-05T08:49:26Z</time>
      </trkpt>
      <trkpt lat="45.5198" lon="6.9143">
        <ele>1578</ele>
        <time>2009-07-05T08:49:31Z</time>
      </trkpt>
      <trkpt lat="45.51953" lon="6.91458">
        <ele>1566</ele>
        <time>2009-07-05T08:49:37Z</time>
      </trkpt>
      <trkpt lat="45.51882" lon="6.91496">
        <ele>1590</ele>
        <time>2009-07-05T08:49:49Z</time>
      </trkpt>
      <trkpt lat="45.51839" lon="6.91513">
        <ele>1586</ele>
        <time>2009-07-05T08:49:56Z</time>
      </trkpt>
      <trkpt lat="45.51817" lon="6.91513">
        <ele>1586</ele>
        <time>2009-07-05T08:50:00Z</time>
      </trkpt>
      <trkpt lat="45.51774" lon="6.91532">
        <ele>1600</ele>
        <time>2009-07-05T08:50:07Z</time>
      </trkpt>
      <trkpt lat="45.51751" lon="6.91566">
        <ele>1601</ele>
        <time>2009-07-05T08:50:12Z</time>
      </trkpt>
      <trkpt lat="45.5173" lon="6.91615">
        <ele>1601</ele>
        <time>2009-07-05T08:50:18Z</time>
      </trkpt>
      <trkpt lat="45.51721" lon="6.91622">
        <ele>1601</ele>
        <time>2009-07-05T08:50:20Z</time>
      </trkpt>
      <trkpt lat="45.51682" lon="6.91633">
        <ele>1645</ele>
        <time>2009-07-05T08:50:26Z</time>
      </trkpt>
      <trkpt lat="45.51597" lon="6.91637">
        <ele>1638</ele>
        <time>2009-07-05T08:50:40Z</time>
      </trkpt>
      <trkpt lat="45.51547" lon="6.91651">
        <ele>1638</ele>
        <time>2009-07-05T08:50:48Z</time>
      </trkpt>
      <trkpt lat="45.51466" lon="6.91685">
        <ele>1617</ele>
        <time>2009-07-05T08:51:02Z</time>
      </trkpt>
      <trkpt lat="45.5142" lon="6.91712">
        <ele>1655</ele>
        <time>2009-07-05T08:51:10Z</time>
      </trkpt>
      <trkpt lat="45.51384" lon="6.91741">
        <ele>1655</ele>
        <time>2009-07-05T08:51:16Z</time>
      </trkpt>
      <trkpt lat="45.51339" lon="6.91795">
        <ele>1646</ele>
        <time>2009-07-05T08:51:26Z</time>
      </trkpt>
      <trkpt lat="45.51165" lon="6.92055">
        <ele>1671</ele>
        <time>2009-07-05T08:52:06Z</time>
      </trkpt>
      <trkpt lat="45.51055" lon="6.92192">
        <ele>1669</ele>
        <time>2009-07-05T08:52:30Z</time>
      </trkpt>
      <trkpt lat="45.51045" lon="6.9221">
        <ele>1700</ele>
        <time>2009-07-05T08:52:32Z</time>
      </trkpt>
      <trkpt lat="45.51023" lon="6.92278">
        <ele>1659</ele>
        <time>2009-07-05T08:52:40Z</time>
      </trkpt>
      <trkpt lat="45.50993" lon="6.92353">
        <ele>1688</ele>
        <time>2009-07-05T08:52:50Z</time>
      </trkpt>
      <trkpt lat="45.50976" lon="6.92387">
        <ele>1720</ele>
        <time>2009-07-05T08:52:55Z</time>
      </trkpt>
      <trkpt lat="45.50951" lon="6.92422">
        <ele>1680</ele>
        <time>2009-07-05T08:53:00Z</time>
      </trkpt>
      <trkpt lat="45.50923" lon="6.92447">
        <ele>1680</ele>
        <time>2009-07-05T08:53:06Z</time>
      </trkpt>
      <trkpt lat="45.50883" lon="6.92472">
        <ele>1728</ele>
        <time>2009-07-05T08:53:13Z</time>
      </trkpt>
      <trkpt lat="45.50768" lon="6.92524">
        <ele>1680</ele>
        <time>2009-07-05T08:53:32Z</time>
      </trkpt>
      <trkpt lat="45.50746" lon="6.92538">
        <ele>1680</ele>
        <time>2009-07-05T08:53:36Z</time>
      </trkpt>
      <trkpt lat="45.50731" lon="6.92559">
        <ele>1727</ele>
        <time>2009-07-05T08:53:39Z</time>
      </trkpt>
      <trkpt lat="45.50683" lon="6.92654">
        <ele>1732</ele>
        <time>2009-07-05T08:53:52Z</time>
      </trkpt>
      <trkpt lat="45.50554" lon="6.92778">
        <ele>1736</ele>
        <time>2009-07-05T08:54:17Z</time>
      </trkpt>
      <trkpt lat="45.50492" lon="6.92873">
        <ele>1723</ele>
        <time>2009-07-05T08:54:32Z</time>
      </trkpt>
      <trkpt lat="45.50443" lon="6.92935">
        <ele>1720</ele>
        <time>2009-07-05T08:54:42Z</time>
      </trkpt>
      <trkpt lat="45.50371" lon="6.92992">
        <ele>1746</ele>
        <time>2009-07-05T08:54:56Z</time>
      </trkpt>
      <trkpt lat="45.50331" lon="6.93013">
        <ele>1746</ele>
        <time>2009-07-05T08:55:02Z</time>
      </trkpt>
      <trkpt lat="45.50301" lon="6.93023">
        <ele>1746</ele>
        <time>2009-07-05T08:55:07Z</time>
      </trkpt>
      <trkpt lat="45.50214" lon="6.93024">
        <ele>1744</ele>
        <time>2009-07-05T08:55:21Z</time>
      </trkpt>
      <trkpt lat="45.5017" lon="6.93031">
        <ele>1738</ele>
        <time>2009-07-05T08:55:28Z</time>
      </trkpt>
      <trkpt lat="45.50116" lon="6.93062">
        <ele>1781</ele>
        <time>2009-07-05T08:55:38Z</time>
      </trkpt>
      <trkpt lat="45.50024" lon="6.93092">
        <ele>1763</ele>
        <time>2009-07-05T08:55:53Z</time>
      </trkpt>
      <trkpt lat="45.49954" lon="6.93148">
        <ele>1789</ele>
        <time>2009-07-05T08:56:06Z</time>
      </trkpt>
      <trkpt lat="45.49929" lon="6.9316">
        <ele>1789</ele>
        <time>2009-07-05T08:56:10Z</time>
      </trkpt>
      <trkpt lat="45.49907" lon="6.93163">
        <ele>1789</ele>
        <time>2009-07-05T08:56:13Z</time>
      </trkpt>
      <trkpt lat="45.49843" lon="6.93187">
        <ele>1771</ele>
        <time>2009-07-05T08:56:24Z</time>
      </trkpt>
      <trkpt lat="45.49786" lon="6.93233">
        <ele>1781</ele>
        <time>2009-07-05T08:56:34Z</time>
      </trkpt>
      <trkpt lat="45.49742" lon="6.93286">
        <ele>1781</ele>
        <time>2009-07-05T08:56:44Z</time>
      </trkpt>
      <trkpt lat="45.49729" lon="6.93312">
        <ele>1816</ele>
        <time>2009-07-05T08:56:47Z</time>
      </trkpt>
      <trkpt lat="45.497" lon="6.9334">
        <ele>1787</ele>
        <time>2009-07-05T08:56:53Z</time>
      </trkpt>
      <trkpt lat="45.49662" lon="6.93366">
        <ele>1787</ele>
        <time>2009-07-05T08:57:00Z</time>
      </trkpt>
      <trkpt lat="45.49626" lon="6.93378">
        <ele>1826</ele>
        <time>2009-07-05T08:57:06Z</time>
      </trkpt>
      <trkpt lat="45.49587" lon="6.93411">
        <ele>1778</ele>
        <time>2009-07-05T08:57:13Z</time>
      </trkpt>
      <trkpt lat="45.49559" lon="6.93445">
        <ele>1778</ele>
        <time>2009-07-05T08:57:19Z</time>
      </trkpt>
      <trkpt lat="45.49523" lon="6.93519">
        <ele>1793</ele>
        <time>2009-07-05T08:57:29Z</time>
      </trkpt>
      <trkpt lat="45.49483" lon="6.93563">
        <ele>1827</ele>
        <time>2009-07-05T08:57:37Z</time>
      </trkpt>
      <trkpt lat="45.49424" lon="6.93641">
        <ele>1822</ele>
        <time>2009-07-05T08:57:50Z</time>
      </trkpt>
      <trkpt lat="45.49376" lon="6.93719">
        <ele>1870</ele>
        <time>2009-07-05T08:58:01Z</time>
      </trkpt>
      <trkpt lat="45.49325" lon="6.9385">
        <ele>1830</ele>
        <time>2009-07-05T08:58:18Z</time>
      </trkpt>
      <trkpt lat="45.49264" lon="6.93968">
        <ele>1871</ele>
        <time>2009-07-05T08:58:35Z</time>
      </trkpt>
      <trkpt lat="45.49182" lon="6.94082">
        <ele>1851</ele>
        <time>2009-07-05T08:58:53Z</time>
      </trkpt>
      <trkpt lat="45.49158" lon="6.94106">
        <ele>1851</ele>
        <time>2009-07-05T08:58:58Z</time>
      </trkpt>
      <trkpt lat="45.49038" lon="6.94182">
        <ele>1811</ele>
        <time>2009-07-05T08:59:19Z</time>
      </trkpt>
      <trkpt lat="45.48825" lon="6.94293">
        <ele>1855</ele>
        <time>2009-07-05T08:59:55Z</time>
      </trkpt>
      <trkpt lat="45.48613" lon="6.94387">
        <ele>1815</ele>
        <time>2009-07-05T09:00:31Z</time>
      </trkpt>
      <trkpt lat="45.48558" lon="6.94438">
        <ele>1815</ele>
        <time>2009-07-05T09:00:41Z</time>
      </trkpt>
      <trkpt lat="45.48455" lon="6.94499">
        <ele>1816</ele>
        <time>2009-07-05T09:00:59Z</time>
      </trkpt>
      <trkpt lat="45.48404" lon="6.94517">
        <ele>1816</ele>
        <time>2009-07-05T09:01:07Z</time>
      </trkpt>
      <trkpt lat="45.48228" lon="6.94557">
        <ele>1833</ele>
        <time>2009-07-05T09:01:36Z</time>
      </trkpt>
      <trkpt lat="45.48099" lon="6.94606">
        <ele>1800</ele>
        <time>2009-07-05T09:01:57Z</time>
      </trkpt>
      <trkpt lat="45.48054" lon="6.94632">
        <ele>1836</ele>
        <time>2009-07-05T09:02:05Z</time>
      </trkpt>
      <trkpt lat="45.48024" lon="6.94662">
        <ele>1788</ele>
        <time>2009-07-05T09:02:11Z</time>
      </trkpt>
      <trkpt lat="45.47995" lon="6.94706">
        <ele>1788</ele>
        <time>2009-07-05T09:02:18Z</time>
      </trkpt>
      <trkpt lat="45.47955" lon="6.94804">
        <ele>1796</ele>
        <time>2009-07-05T09:02:30Z</time>
      </trkpt>
      <trkpt lat="45.4794" lon="6.94836">
        <ele>1796</ele>
        <time>2009-07-05T09:02:35Z</time>
      </trkpt>
      <trkpt lat="45.47923" lon="6.94861">
        <ele>1796</ele>
        <time>2009-07-05T09:02:39Z</time>
      </trkpt>
      <trkpt lat="45.47791" lon="6.95002">
        <ele>1804</ele>
        <time>2009-07-05T09:03:05Z</time>
      </trkpt>
      <trkpt lat="45.47747" lon="6.95037">
        <ele>1804</ele>
        <time>2009-07-05T09:03:13Z</time>
      </trkpt>
      <trkpt lat="45.47726" lon="6.95041">
        <ele>1804</ele>
        <time>2009-07-05T09:03:17Z</time>
      </trkpt>
      <trkpt lat="45.47706" lon="6.95033">
        <ele>1807</ele>
        <time>2009-07-05T09:03:20Z</time>
      </trkpt>
      <trkpt lat="45.47693" lon="6.95014">
        <ele>1807</ele>
        <time>2009-07-05T09:03:23Z</time>
      </trkpt>
      <trkpt lat="45.47687" lon="6.94983">
        <ele>1807</ele>
        <time>2009-07-05T09:03:26Z</time>
      </trkpt>
      <trkpt lat="45.47678" lon="6.94962">
        <ele>1807</ele>
        <time>2009-07-05T09:03:29Z</time>
      </trkpt>
      <trkpt lat="45.47668" lon="6.94944">
        <ele>1794</ele>
        <time>2009-07-05T09:03:32Z</time>
      </trkpt>
      <trkpt lat="45.47642" lon="6.94916">
        <ele>1794</ele>
        <time>2009-07-05T09:03:37Z</time>
      </trkpt>
      <trkpt lat="45.4762" lon="6.9491">
        <ele>1802</ele>
        <time>2009-07-05T09:03:41Z</time>
      </trkpt>
      <trkpt lat="45.47593" lon="6.94912">
        <ele>1802</ele>
        <time>2009-07-05T09:03:45Z</time>
      </trkpt>
      <trkpt lat="45.47513" lon="6.94933">
        <ele>1811</ele>
        <time>2009-07-05T09:03:58Z</time>
      </trkpt>
      <trkpt lat="45.47498" lon="6.94927">
        <ele>1811</ele>
        <time>2009-07-05T09:04:00Z</time>
      </trkpt>
      <trkpt lat="45.47489" lon="6.94915">
        <ele>1811</ele>
        <time>2009-07-05T09:04:02Z</time>
      </trkpt>
      <trkpt lat="45.47473" lon="6.94872">
        <ele>1781</ele>
        <time>2009-07-05T09:04:08Z</time>
      </trkpt>
      <trkpt lat="45.47465" lon="6.9486">
        <ele>1781</ele>
        <time>2009-07-05T09:04:10Z</time>
      </trkpt>
      <trkpt lat="45.47433" lon="6.94854">
        <ele>1776</ele>
        <time>2009-07-05T09:04:15Z</time>
      </trkpt>
      <trkpt lat="45.47421" lon="6.94862">
        <ele>1776</ele>
        <time>2009-07-05T09:04:17Z</time>
      </trkpt>
      <trkpt lat="45.47384" lon="6.94994">
        <ele>1844</ele>
        <time>2009-07-05T09:04:33Z</time>
      </trkpt>
      <trkpt lat="45.47374" lon="6.95057">
        <ele>1818</ele>
        <time>2009-07-05T09:04:40Z</time>
      </trkpt>
      <trkpt lat="45.47313" lon="6.95206">
        <ele>1862</ele>
        <time>2009-07-05T09:05:00Z</time>
      </trkpt>
      <trkpt lat="45.47277" lon="6.95274">
        <ele>1805</ele>
        <time>2009-07-05T09:05:09Z</time>
      </trkpt>
      <trkpt lat="45.47155" lon="6.954">
        <ele>1801</ele>
        <time>2009-07-05T09:05:33Z</time>
      </trkpt>
      <trkpt lat="45.47007" lon="6.95735">
        <ele>1823</ele>
        <time>2009-07-05T09:06:18Z</time>
      </trkpt>
      <trkpt lat="45.46926" lon="6.95863">
        <ele>1806</ele>
        <time>2009-07-05T09:06:37Z</time>
      </trkpt>
      <trkpt lat="45.46894" lon="6.95895">
        <ele>1872</ele>
        <time>2009-07-05T09:06:43Z</time>
      </trkpt>
      <trkpt lat="45.46812" lon="6.95943">
        <ele>1807</ele>
        <time>2009-07-05T09:06:58Z</time>
      </trkpt>
      <trkpt lat="45.46776" lon="6.95956">
        <ele>1807</ele>
        <time>2009-07-05T09:07:04Z</time>
      </trkpt>
      <trkpt lat="45.46707" lon="6.95964">
        <ele>1804</ele>
        <time>2009-07-05T09:07:15Z</time>
      </trkpt>
      <trkpt lat="45.46686" lon="6.95971">
        <ele>1804</ele>
        <time>2009-07-05T09:07:18Z</time>
      </trkpt>
      <trkpt lat="45.4663" lon="6.96033">
        <ele>1804</ele>
        <time>2009-07-05T09:07:29Z</time>
      </trkpt>
      <trkpt lat="45.46569" lon="6.96122">
        <ele>1804</ele>
        <time>2009-07-05T09:07:43Z</time>
      </trkpt>
      <trkpt lat="45.46532" lon="6.96165">
        <ele>1800</ele>
        <time>2009-07-05T09:07:51Z</time>
      </trkpt>
      <trkpt lat="45.46507" lon="6.96192">
        <ele>1800</ele>
        <time>2009-07-05T09:07:56Z</time>
      </trkpt>
      <trkpt lat="45.46406" lon="6.96279">
        <ele>1803</ele>
        <time>2009-07-05T09:08:15Z</time>
      </trkpt>
      <trkpt lat="45.46314" lon="6.96397">
        <ele>1811</ele>
        <time>2009-07-05T09:08:35Z</time>
      </trkpt>
      <trkpt lat="45.46281" lon="6.96415">
        <ele>1799</ele>
        <time>2009-07-05T09:08:40Z</time>
      </trkpt>
      <trkpt lat="45.46276" lon="6.96408">
        <ele>1799</ele>
        <time>2009-07-05T09:08:42Z</time>
      </trkpt>
      <trkpt lat="45.46266" lon="6.96407">
        <ele>1799</ele>
        <time>2009-07-05T09:08:43Z</time>
      </trkpt>
      <trkpt lat="45.46259" lon="6.96416">
        <ele>1799</ele>
        <time>2009-07-05T09:08:45Z</time>
      </trkpt>
      <trkpt lat="45.46258" lon="6.96429">
        <ele>1799</ele>
        <time>2009-07-05T09:08:46Z</time>
      </trkpt>
      <trkpt lat="45.46143" lon="6.96483">
        <ele>1803</ele>
        <time>2009-07-05T09:09:06Z</time>
      </trkpt>
      <trkpt lat="45.45976" lon="6.96619">
        <ele>1799</ele>
        <time>2009-07-05T09:09:36Z</time>
      </trkpt>
      <trkpt lat="45.45966" lon="6.96609">
        <ele>1799</ele>
        <time>2009-07-05T09:09:38Z</time>
      </trkpt>
      <trkpt lat="45.45958" lon="6.96612">
        <ele>1799</ele>
        <time>2009-07-05T09:09:40Z</time>
      </trkpt>
      <trkpt lat="45.45953" lon="6.9662">
        <ele>1799</ele>
        <time>2009-07-05T09:09:41Z</time>
      </trkpt>
      <trkpt lat="45.45956" lon="6.96638">
        <ele>1801</ele>
        <time>2009-07-05T09:09:43Z</time>
      </trkpt>
      <trkpt lat="45.45517" lon="6.96977">
        <ele>1807</ele>
        <time>2009-07-05T09:11:03Z</time>
      </trkpt>
      <trkpt lat="45.45482" lon="6.97012">
        <ele>1807</ele>
        <time>2009-07-05T09:11:10Z</time>
      </trkpt>
      <trkpt lat="45.45428" lon="6.9709">
        <ele>1810</ele>
        <time>2009-07-05T09:11:22Z</time>
      </trkpt>
      <trkpt lat="45.45345" lon="6.97228">
        <ele>1814</ele>
        <time>2009-07-05T09:11:42Z</time>
      </trkpt>
      <trkpt lat="45.45249" lon="6.97375">
        <ele>1818</ele>
        <time>2009-07-05T09:12:05Z</time>
      </trkpt>
      <trkpt lat="45.45139" lon="6.97508">
        <ele>1819</ele>
        <time>2009-07-05T09:12:28Z</time>
      </trkpt>
      <trkpt lat="45.45025" lon="6.97703">
        <ele>1825</ele>
        <time>2009-07-05T09:12:57Z</time>
      </trkpt>
      <trkpt lat="45.45012" lon="6.9772">
        <ele>1826</ele>
        <time>2009-07-05T09:12:59Z</time>
      </trkpt>
      <trkpt lat="45.45003" lon="6.97712">
        <ele>1826</ele>
        <time>2009-07-05T09:13:01Z</time>
      </trkpt>
      <trkpt lat="45.44993" lon="6.97718">
        <ele>1826</ele>
        <time>2009-07-05T09:13:03Z</time>
      </trkpt>
      <trkpt lat="45.44991" lon="6.97733">
        <ele>1826</ele>
        <time>2009-07-05T09:13:05Z</time>
      </trkpt>
      <trkpt lat="45.45001" lon="6.97745">
        <ele>1826</ele>
        <time>2009-07-05T09:13:07Z</time>
      </trkpt>
      <trkpt lat="45.45" lon="6.97759">
        <ele>1826</ele>
        <time>2009-07-05T09:13:08Z</time>
      </trkpt>
      <trkpt lat="45.44883" lon="6.98008">
        <ele>1837</ele>
        <time>2009-07-05T09:13:42Z</time>
      </trkpt>
      <trkpt lat="45.44874" lon="6.98005">
        <ele>1839</ele>
        <time>2009-07-05T09:13:43Z</time>
      </trkpt>
      <trkpt lat="45.44866" lon="6.98015">
        <ele>1839</ele>
        <time>2009-07-05T09:13:45Z</time>
      </trkpt>
      <trkpt lat="45.44867" lon="6.98029">
        <ele>1839</ele>
        <time>2009-07-05T09:13:47Z</time>
      </trkpt>
      <trkpt lat="45.44872" lon="6.98035">
        <ele>1839</ele>
        <time>2009-07-05T09:13:48Z</time>
      </trkpt>
      <trkpt lat="45.44801" lon="6.98224">
        <ele>1836</ele>
        <time>2009-07-05T09:14:12Z</time>
      </trkpt>
      <trkpt lat="45.44721" lon="6.98452">
        <ele>1842</ele>
        <time>2009-07-05T09:14:40Z</time>
      </trkpt>
      <trkpt lat="45.44661" lon="6.98642">
        <ele>1850</ele>
        <time>2009-07-05T09:15:04Z</time>
      </trkpt>
      <trkpt lat="45.44649" lon="6.98699">
        <ele>1850</ele>
        <time>2009-07-05T09:15:11Z</time>
      </trkpt>
      <trkpt lat="45.44647" lon="6.98787">
        <ele>1852</ele>
        <time>2009-07-05T09:15:20Z</time>
      </trkpt>
      <trkpt lat="45.44638" lon="6.98793">
        <ele>1852</ele>
        <time>2009-07-05T09:15:22Z</time>
      </trkpt>
      <trkpt lat="45.44635" lon="6.98806">
        <ele>1852</ele>
        <time>2009-07-05T09:15:24Z</time>
      </trkpt>
      <trkpt lat="45.4464" lon="6.98818">
        <ele>1852</ele>
        <time>2009-07-05T09:15:25Z</time>
      </trkpt>
      <trkpt lat="45.44652" lon="6.98819">
        <ele>1852</ele>
        <time>2009-07-05T09:15:27Z</time>
      </trkpt>
      <trkpt lat="45.4471" lon="6.99137">
        <ele>1856</ele>
        <time>2009-07-05T09:16:04Z</time>
      </trkpt>
      <trkpt lat="45.44734" lon="6.99306">
        <ele>1862</ele>
        <time>2009-07-05T09:16:23Z</time>
      </trkpt>
      <trkpt lat="45.44736" lon="6.994">
        <ele>1863</ele>
        <time>2009-07-05T09:16:34Z</time>
      </trkpt>
      <trkpt lat="45.44733" lon="6.99644">
        <ele>1870</ele>
        <time>2009-07-05T09:17:01Z</time>
      </trkpt>
      <trkpt lat="45.44755" lon="6.99941">
        <ele>1880</ele>
        <time>2009-07-05T09:17:35Z</time>
      </trkpt>
      <trkpt lat="45.44764" lon="6.99994">
        <ele>1885</ele>
        <time>2009-07-05T09:17:41Z</time>
      </trkpt>
      <trkpt lat="45.44779" lon="7.0005">
        <ele>1891</ele>
        <time>2009-07-05T09:17:48Z</time>
      </trkpt>
      <trkpt lat="45.44781" lon="7.00122">
        <ele>1891</ele>
        <time>2009-07-05T09:17:56Z</time>
      </trkpt>
      <trkpt lat="45.4482" lon="7.00351">
        <ele>1903</ele>
        <time>2009-07-05T09:18:22Z</time>
      </trkpt>
      <trkpt lat="45.44823" lon="7.00441">
        <ele>1903</ele>
        <time>2009-07-05T09:18:32Z</time>
      </trkpt>
      <trkpt lat="45.4482" lon="7.00556">
        <ele>1910</ele>
        <time>2009-07-05T09:18:45Z</time>
      </trkpt>
      <trkpt lat="45.44822" lon="7.00634">
        <ele>1912</ele>
        <time>2009-07-05T09:18:54Z</time>
      </trkpt>
      <trkpt lat="45.44873" lon="7.0077">
        <ele>1916</ele>
        <time>2009-07-05T09:19:11Z</time>
      </trkpt>
      <trkpt lat="45.44929" lon="7.00888">
        <ele>1925</ele>
        <time>2009-07-05T09:19:27Z</time>
      </trkpt>
      <trkpt lat="45.44951" lon="7.00929">
        <ele>1925</ele>
        <time>2009-07-05T09:19:33Z</time>
      </trkpt>
      <trkpt lat="45.45011" lon="7.01017">
        <ele>1939</ele>
        <time>2009-07-05T09:19:47Z</time>
      </trkpt>
      <trkpt lat="45.45045" lon="7.0109">
        <ele>1951</ele>
        <time>2009-07-05T09:19:57Z</time>
      </trkpt>
      <trkpt lat="45.45115" lon="7.01324">
        <ele>1951</ele>
        <time>2009-07-05T09:20:25Z</time>
      </trkpt>
      <trkpt lat="45.45263" lon="7.0174">
        <ele>1977</ele>
        <time>2009-07-05T09:21:18Z</time>
      </trkpt>
      <trkpt lat="45.45286" lon="7.01848">
        <ele>1977</ele>
        <time>2009-07-05T09:21:30Z</time>
      </trkpt>
      <trkpt lat="45.45298" lon="7.01928">
        <ele>2012</ele>
        <time>2009-07-05T09:21:40Z</time>
      </trkpt>
      <trkpt lat="45.453" lon="7.01975">
        <ele>2009</ele>
        <time>2009-07-05T09:21:45Z</time>
      </trkpt>
      <trkpt lat="45.45296" lon="7.01995">
        <ele>2009</ele>
        <time>2009-07-05T09:21:47Z</time>
      </trkpt>
      <trkpt lat="45.45261" lon="7.02092">
        <ele>1997</ele>
        <time>2009-07-05T09:22:00Z</time>
      </trkpt>
      <trkpt lat="45.45258" lon="7.0211">
        <ele>1997</ele>
        <time>2009-07-05T09:22:02Z</time>
      </trkpt>
      <trkpt lat="45.4526" lon="7.02188">
        <ele>2002</ele>
        <time>2009-07-05T09:22:10Z</time>
      </trkpt>
      <trkpt lat="45.45248" lon="7.02239">
        <ele>2014</ele>
        <time>2009-07-05T09:22:16Z</time>
      </trkpt>
      <trkpt lat="45.45243" lon="7.02253">
        <ele>2014</ele>
        <time>2009-07-05T09:22:18Z</time>
      </trkpt>
      <trkpt lat="45.45227" lon="7.02275">
        <ele>2014</ele>
        <time>2009-07-05T09:22:22Z</time>
      </trkpt>
      <trkpt lat="45.45169" lon="7.02309">
        <ele>2015</ele>
        <time>2009-07-05T09:22:32Z</time>
      </trkpt>
      <trkpt lat="45.4515" lon="7.02328">
        <ele>2015</ele>
        <time>2009-07-05T09:22:36Z</time>
      </trkpt>
      <trkpt lat="45.45142" lon="7.02346">
        <ele>2015</ele>
        <time>2009-07-05T09:22:38Z</time>
      </trkpt>
      <trkpt lat="45.45137" lon="7.02405">
        <ele>2024</ele>
        <time>2009-07-05T09:22:45Z</time>
      </trkpt>
      <trkpt lat="45.45161" lon="7.02483">
        <ele>2022</ele>
        <time>2009-07-05T09:22:54Z</time>
      </trkpt>
      <trkpt lat="45.45243" lon="7.02696">
        <ele>2037</ele>
        <time>2009-07-05T09:23:21Z</time>
      </trkpt>
      <trkpt lat="45.45258" lon="7.02835">
        <ele>2029</ele>
        <time>2009-07-05T09:23:37Z</time>
      </trkpt>
      <trkpt lat="45.45292" lon="7.02956">
        <ele>2045</ele>
        <time>2009-07-05T09:23:52Z</time>
      </trkpt>
      <trkpt lat="45.45359" lon="7.03125">
        <ele>2034</ele>
        <time>2009-07-05T09:24:14Z</time>
      </trkpt>
      <trkpt lat="45.45436" lon="7.03299">
        <ele>2040</ele>
        <time>2009-07-05T09:24:37Z</time>
      </trkpt>
      <trkpt lat="45.45486" lon="7.03437">
        <ele>2053</ele>
        <time>2009-07-05T09:24:54Z</time>
      </trkpt>
      <trkpt lat="45.45495" lon="7.03471">
        <ele>2051</ele>
        <time>2009-07-05T09:24:58Z</time>
      </trkpt>
      <trkpt lat="45.45499" lon="7.0354">
        <ele>2051</ele>
        <time>2009-07-05T09:25:06Z</time>
      </trkpt>
      <trkpt lat="45.45491" lon="7.03632">
        <ele>2053</ele>
        <time>2009-07-05T09:25:17Z</time>
      </trkpt>
      <trkpt lat="45.45473" lon="7.03658">
        <ele>2053</ele>
        <time>2009-07-05T09:25:21Z</time>
      </trkpt>
      <trkpt lat="45.45448" lon="7.03666">
        <ele>2054</ele>
        <time>2009-07-05T09:25:25Z</time>
      </trkpt>
      <trkpt lat="45.45417" lon="7.03664">
        <ele>2054</ele>
        <time>2009-07-05T09:25:30Z</time>
      </trkpt>
      <trkpt lat="45.45407" lon="7.03651">
        <ele>2054</ele>
        <time>2009-07-05T09:25:32Z</time>
      </trkpt>
      <trkpt lat="45.45369" lon="7.03575">
        <ele>2072</ele>
        <time>2009-07-05T09:25:42Z</time>
      </trkpt>
      <trkpt lat="45.45347" lon="7.03493">
        <ele>2061</ele>
        <time>2009-07-05T09:25:52Z</time>
      </trkpt>
      <trkpt lat="45.45332" lon="7.03492">
        <ele>2061</ele>
        <time>2009-07-05T09:25:55Z</time>
      </trkpt>
      <trkpt lat="45.45321" lon="7.03513">
        <ele>2061</ele>
        <time>2009-07-05T09:25:58Z</time>
      </trkpt>
      <trkpt lat="45.45323" lon="7.03539">
        <ele>2061</ele>
        <time>2009-07-05T09:26:00Z</time>
      </trkpt>
      <trkpt lat="45.45347" lon="7.03599">
        <ele>2072</ele>
        <time>2009-07-05T09:26:08Z</time>
      </trkpt>
      <trkpt lat="45.45379" lon="7.0379">
        <ele>2059</ele>
        <time>2009-07-05T09:26:30Z</time>
      </trkpt>
      <trkpt lat="45.4539" lon="7.03913">
        <ele>2075</ele>
        <time>2009-07-05T09:26:44Z</time>
      </trkpt>
      <trkpt lat="45.45402" lon="7.03962">
        <ele>2088</ele>
        <time>2009-07-05T09:26:50Z</time>
      </trkpt>
      <trkpt lat="45.45401" lon="7.03972">
        <ele>2088</ele>
        <time>2009-07-05T09:26:51Z</time>
      </trkpt>
      <trkpt lat="45.45396" lon="7.03978">
        <ele>2088</ele>
        <time>2009-07-05T09:26:52Z</time>
      </trkpt>
      <trkpt lat="45.45379" lon="7.03976">
        <ele>2088</ele>
        <time>2009-07-05T09:26:55Z</time>
      </trkpt>
      <trkpt lat="45.4537" lon="7.03962">
        <ele>2116</ele>
        <time>2009-07-05T09:26:57Z</time>
      </trkpt>
      <trkpt lat="45.45367" lon="7.03911">
        <ele>2110</ele>
        <time>2009-07-05T09:27:03Z</time>
      </trkpt>
      <trkpt lat="45.45359" lon="7.0386">
        <ele>2100</ele>
        <time>2009-07-05T09:27:09Z</time>
      </trkpt>
      <trkpt lat="45.45336" lon="7.03787">
        <ele>2096</ele>
        <time>2009-07-05T09:27:18Z</time>
      </trkpt>
      <trkpt lat="45.45302" lon="7.03704">
        <ele>2085</ele>
        <time>2009-07-05T09:27:28Z</time>
      </trkpt>
      <trkpt lat="45.45225" lon="7.03545">
        <ele>2104</ele>
        <time>2009-07-05T09:27:50Z</time>
      </trkpt>
      <trkpt lat="45.45196" lon="7.03448">
        <ele>2122</ele>
        <time>2009-07-05T09:28:02Z</time>
      </trkpt>
      <trkpt lat="45.4516" lon="7.0339">
        <ele>2122</ele>
        <time>2009-07-05T09:28:11Z</time>
      </trkpt>
      <trkpt lat="45.45128" lon="7.03319">
        <ele>2110</ele>
        <time>2009-07-05T09:28:20Z</time>
      </trkpt>
      <trkpt lat="45.4505" lon="7.03093">
        <ele>2107</ele>
        <time>2009-07-05T09:28:49Z</time>
      </trkpt>
      <trkpt lat="45.45036" lon="7.03067">
        <ele>2174</ele>
        <time>2009-07-05T09:28:52Z</time>
      </trkpt>
      <trkpt lat="45.45" lon="7.03023">
        <ele>2148</ele>
        <time>2009-07-05T09:29:00Z</time>
      </trkpt>
      <trkpt lat="45.44981" lon="7.02987">
        <ele>2148</ele>
        <time>2009-07-05T09:29:05Z</time>
      </trkpt>
      <trkpt lat="45.44903" lon="7.02773">
        <ele>2153</ele>
        <time>2009-07-05T09:29:32Z</time>
      </trkpt>
      <trkpt lat="45.4484" lon="7.02543">
        <ele>2196</ele>
        <time>2009-07-05T09:30:00Z</time>
      </trkpt>
      <trkpt lat="45.44801" lon="7.02441">
        <ele>2161</ele>
        <time>2009-07-05T09:30:13Z</time>
      </trkpt>
      <trkpt lat="45.44758" lon="7.02341">
        <ele>2195</ele>
        <time>2009-07-05T09:30:26Z</time>
      </trkpt>
      <trkpt lat="45.44634" lon="7.02086">
        <ele>2185</ele>
        <time>2009-07-05T09:31:01Z</time>
      </trkpt>
      <trkpt lat="45.44554" lon="7.01956">
        <ele>2189</ele>
        <time>2009-07-05T09:31:20Z</time>
      </trkpt>
      <trkpt lat="45.44512" lon="7.01852">
        <ele>2211</ele>
        <time>2009-07-05T09:31:34Z</time>
      </trkpt>
      <trkpt lat="45.44504" lon="7.01843">
        <ele>2211</ele>
        <time>2009-07-05T09:31:35Z</time>
      </trkpt>
      <trkpt lat="45.44497" lon="7.01842">
        <ele>2211</ele>
        <time>2009-07-05T09:31:36Z</time>
      </trkpt>
      <trkpt lat="45.44492" lon="7.01851">
        <ele>2211</ele>
        <time>2009-07-05T09:31:38Z</time>
      </trkpt>
      <trkpt lat="45.44493" lon="7.01864">
        <ele>2211</ele>
        <time>2009-07-05T09:31:39Z</time>
      </trkpt>
      <trkpt lat="45.44528" lon="7.01969">
        <ele>2246</ele>
        <time>2009-07-05T09:31:52Z</time>
      </trkpt>
      <trkpt lat="45.44582" lon="7.02182">
        <ele>2237</ele>
        <time>2009-07-05T09:32:18Z</time>
      </trkpt>
      <trkpt lat="45.44603" lon="7.02224">
        <ele>2256</ele>
        <time>2009-07-05T09:32:23Z</time>
      </trkpt>
      <trkpt lat="45.44631" lon="7.02258">
        <ele>2222</ele>
        <time>2009-07-05T09:32:29Z</time>
      </trkpt>
      <trkpt lat="45.44654" lon="7.02306">
        <ele>2238</ele>
        <time>2009-07-05T09:32:36Z</time>
      </trkpt>
      <trkpt lat="45.44679" lon="7.02389">
        <ele>2255</ele>
        <time>2009-07-05T09:32:46Z</time>
      </trkpt>
      <trkpt lat="45.44681" lon="7.02422">
        <ele>2255</ele>
        <time>2009-07-05T09:32:50Z</time>
      </trkpt>
      <trkpt lat="45.44677" lon="7.0243">
        <ele>2255</ele>
        <time>2009-07-05T09:32:51Z</time>
      </trkpt>
      <trkpt lat="45.4467" lon="7.02427">
        <ele>2255</ele>
        <time>2009-07-05T09:32:52Z</time>
      </trkpt>
      <trkpt lat="45.44657" lon="7.02379">
        <ele>2255</ele>
        <time>2009-07-05T09:32:58Z</time>
      </trkpt>
      <trkpt lat="45.44634" lon="7.02335">
        <ele>2238</ele>
        <time>2009-07-05T09:33:04Z</time>
      </trkpt>
      <trkpt lat="45.44615" lon="7.02314">
        <ele>2281</ele>
        <time>2009-07-05T09:33:08Z</time>
      </trkpt>
      <trkpt lat="45.44561" lon="7.02271">
        <ele>2256</ele>
        <time>2009-07-05T09:33:18Z</time>
      </trkpt>
      <trkpt lat="45.44547" lon="7.02252">
        <ele>2256</ele>
        <time>2009-07-05T09:33:21Z</time>
      </trkpt>
      <trkpt lat="45.44461" lon="7.02085">
        <ele>2262</ele>
        <time>2009-07-05T09:33:44Z</time>
      </trkpt>
      <trkpt lat="45.44366" lon="7.01935">
        <ele>2291</ele>
        <time>2009-07-05T09:34:07Z</time>
      </trkpt>
      <trkpt lat="45.44357" lon="7.01923">
        <ele>2291</ele>
        <time>2009-07-05T09:34:09Z</time>
      </trkpt>
      <trkpt lat="45.44324" lon="7.01904">
        <ele>2291</ele>
        <time>2009-07-05T09:34:14Z</time>
      </trkpt>
      <trkpt lat="45.44281" lon="7.01871">
        <ele>2322</ele>
        <time>2009-07-05T09:34:22Z</time>
      </trkpt>
      <trkpt lat="45.4427" lon="7.01857">
        <ele>2322</ele>
        <time>2009-07-05T09:34:25Z</time>
      </trkpt>
      <trkpt lat="45.44268" lon="7.01831">
        <ele>2322</ele>
        <time>2009-07-05T09:34:28Z</time>
      </trkpt>
      <trkpt lat="45.4429" lon="7.01751">
        <ele>2322</ele>
        <time>2009-07-05T09:34:37Z</time>
      </trkpt>
      <trkpt lat="45.44287" lon="7.01724">
        <ele>2322</ele>
        <time>2009-07-05T09:34:40Z</time>
      </trkpt>
      <trkpt lat="45.44278" lon="7.01706">
        <ele>2296</ele>
        <time>2009-07-05T09:34:43Z</time>
      </trkpt>
      <trkpt lat="45.44259" lon="7.01685">
        <ele>2296</ele>
        <time>2009-07-05T09:34:47Z</time>
      </trkpt>
      <trkpt lat="45.4424" lon="7.01679">
        <ele>2296</ele>
        <time>2009-07-05T09:34:50Z</time>
      </trkpt>
      <trkpt lat="45.44185" lon="7.01676">
        <ele>2314</ele>
        <time>2009-07-05T09:34:59Z</time>
      </trkpt>
      <trkpt lat="45.44175" lon="7.0166">
        <ele>2314</ele>
        <time>2009-07-05T09:35:01Z</time>
      </trkpt>
      <trkpt lat="45.44164" lon="7.01619">
        <ele>2317</ele>
        <time>2009-07-05T09:35:06Z</time>
      </trkpt>
      <trkpt lat="45.44166" lon="7.01554">
        <ele>2317</ele>
        <time>2009-07-05T09:35:13Z</time>
      </trkpt>
      <trkpt lat="45.44175" lon="7.01496">
        <ele>2319</ele>
        <time>2009-07-05T09:35:20Z</time>
      </trkpt>
      <trkpt lat="45.44205" lon="7.0139">
        <ele>2320</ele>
        <time>2009-07-05T09:35:33Z</time>
      </trkpt>
      <trkpt lat="45.44207" lon="7.01373">
        <ele>2339</ele>
        <time>2009-07-05T09:35:35Z</time>
      </trkpt>
      <trkpt lat="45.44186" lon="7.01215">
        <ele>2344</ele>
        <time>2009-07-05T09:35:53Z</time>
      </trkpt>
      <trkpt lat="45.44194" lon="7.01133">
        <ele>2342</ele>
        <time>2009-07-05T09:36:02Z</time>
      </trkpt>
      <trkpt lat="45.44168" lon="7.01049">
        <ele>2328</ele>
        <time>2009-07-05T09:36:12Z</time>
      </trkpt>
      <trkpt lat="45.44155" lon="7.00989">
        <ele>2316</ele>
        <time>2009-07-05T09:36:19Z</time>
      </trkpt>
      <trkpt lat="45.44143" lon="7.00902">
        <ele>2308</ele>
        <time>2009-07-05T09:36:29Z</time>
      </trkpt>
      <trkpt lat="45.44126" lon="7.00835">
        <ele>2291</ele>
        <time>2009-07-05T09:36:37Z</time>
      </trkpt>
      <trkpt lat="45.44089" lon="7.00744">
        <ele>2327</ele>
        <time>2009-07-05T09:36:49Z</time>
      </trkpt>
      <trkpt lat="45.44055" lon="7.00692">
        <ele>2304</ele>
        <time>2009-07-05T09:36:57Z</time>
      </trkpt>
      <trkpt lat="45.44007" lon="7.00602">
        <ele>2318</ele>
        <time>2009-07-05T09:37:10Z</time>
      </trkpt>
      <trkpt lat="45.43991" lon="7.00584">
        <ele>2318</ele>
        <time>2009-07-05T09:37:13Z</time>
      </trkpt>
      <trkpt lat="45.43964" lon="7.00568">
        <ele>2318</ele>
        <time>2009-07-05T09:37:18Z</time>
      </trkpt>
      <trkpt lat="45.43925" lon="7.00532">
        <ele>2322</ele>
        <time>2009-07-05T09:37:25Z</time>
      </trkpt>
      <trkpt lat="45.43895" lon="7.00498">
        <ele>2322</ele>
        <time>2009-07-05T09:37:31Z</time>
      </trkpt>
      <trkpt lat="45.43746" lon="7.00425">
        <ele>2345</ele>
        <time>2009-07-05T09:37:57Z</time>
      </trkpt>
      <trkpt lat="45.43678" lon="7.00384">
        <ele>2380</ele>
        <time>2009-07-05T09:38:08Z</time>
      </trkpt>
      <trkpt lat="45.43646" lon="7.00345">
        <ele>2351</ele>
        <time>2009-07-05T09:38:15Z</time>
      </trkpt>
      <trkpt lat="45.43619" lon="7.00287">
        <ele>2363</ele>
        <time>2009-07-05T09:38:23Z</time>
      </trkpt>
      <trkpt lat="45.43607" lon="7.00272">
        <ele>2363</ele>
        <time>2009-07-05T09:38:26Z</time>
      </trkpt>
      <trkpt lat="45.43549" lon="7.00237">
        <ele>2363</ele>
        <time>2009-07-05T09:38:36Z</time>
      </trkpt>
      <trkpt lat="45.43513" lon="7.00206">
        <ele>2359</ele>
        <time>2009-07-05T09:38:42Z</time>
      </trkpt>
      <trkpt lat="45.43453" lon="7.00212">
        <ele>2398</ele>
        <time>2009-07-05T09:38:52Z</time>
      </trkpt>
      <trkpt lat="45.43434" lon="7.00203">
        <ele>2375</ele>
        <time>2009-07-05T09:38:55Z</time>
      </trkpt>
      <trkpt lat="45.43422" lon="7.00185">
        <ele>2375</ele>
        <time>2009-07-05T09:38:58Z</time>
      </trkpt>
      <trkpt lat="45.43411" lon="7.00183">
        <ele>2375</ele>
        <time>2009-07-05T09:39:00Z</time>
      </trkpt>
      <trkpt lat="45.43398" lon="7.0019">
        <ele>2375</ele>
        <time>2009-07-05T09:39:02Z</time>
      </trkpt>
      <trkpt lat="45.43375" lon="7.0023">
        <ele>2398</ele>
        <time>2009-07-05T09:39:08Z</time>
      </trkpt>
      <trkpt lat="45.43364" lon="7.00235">
        <ele>2402</ele>
        <time>2009-07-05T09:39:10Z</time>
      </trkpt>
      <trkpt lat="45.43331" lon="7.00235">
        <ele>2402</ele>
        <time>2009-07-05T09:39:15Z</time>
      </trkpt>
      <trkpt lat="45.43315" lon="7.00232">
        <ele>2402</ele>
        <time>2009-07-05T09:39:18Z</time>
      </trkpt>
      <trkpt lat="45.43279" lon="7.00207">
        <ele>2398</ele>
        <time>2009-07-05T09:39:24Z</time>
      </trkpt>
      <trkpt lat="45.43222" lon="7.00194">
        <ele>2398</ele>
        <time>2009-07-05T09:39:33Z</time>
      </trkpt>
      <trkpt lat="45.43179" lon="7.00161">
        <ele>2411</ele>
        <time>2009-07-05T09:39:41Z</time>
      </trkpt>
      <trkpt lat="45.43149" lon="7.00152">
        <ele>2411</ele>
        <time>2009-07-05T09:39:46Z</time>
      </trkpt>
      <trkpt lat="45.4313" lon="7.0016">
        <ele>2411</ele>
        <time>2009-07-05T09:39:49Z</time>
      </trkpt>
      <trkpt lat="45.43111" lon="7.0019">
        <ele>2439</ele>
        <time>2009-07-05T09:39:54Z</time>
      </trkpt>
      <trkpt lat="45.4311" lon="7.00215">
        <ele>2448</ele>
        <time>2009-07-05T09:39:56Z</time>
      </trkpt>
      <trkpt lat="45.43113" lon="7.00228">
        <ele>2448</ele>
        <time>2009-07-05T09:39:58Z</time>
      </trkpt>
      <trkpt lat="45.4312" lon="7.0025">
        <ele>2448</ele>
        <time>2009-07-05T09:40:01Z</time>
      </trkpt>
      <trkpt lat="45.43134" lon="7.00272">
        <ele>2415</ele>
        <time>2009-07-05T09:40:04Z</time>
      </trkpt>
      <trkpt lat="45.43154" lon="7.00283">
        <ele>2415</ele>
        <time>2009-07-05T09:40:07Z</time>
      </trkpt>
      <trkpt lat="45.43176" lon="7.00285">
        <ele>2415</ele>
        <time>2009-07-05T09:40:11Z</time>
      </trkpt>
      <trkpt lat="45.43234" lon="7.00281">
        <ele>2413</ele>
        <time>2009-07-05T09:40:20Z</time>
      </trkpt>
      <trkpt lat="45.43269" lon="7.00307">
        <ele>2431</ele>
        <time>2009-07-05T09:40:27Z</time>
      </trkpt>
      <trkpt lat="45.43344" lon="7.00314">
        <ele>2426</ele>
        <time>2009-07-05T09:40:39Z</time>
      </trkpt>
      <trkpt lat="45.43432" lon="7.00442">
        <ele>2435</ele>
        <time>2009-07-05T09:40:59Z</time>
      </trkpt>
      <trkpt lat="45.43474" lon="7.00481">
        <ele>2448</ele>
        <time>2009-07-05T09:41:07Z</time>
      </trkpt>
      <trkpt lat="45.4351" lon="7.00491">
        <ele>2448</ele>
        <time>2009-07-05T09:41:13Z</time>
      </trkpt>
      <trkpt lat="45.43568" lon="7.00497">
        <ele>2440</ele>
        <time>2009-07-05T09:41:22Z</time>
      </trkpt>
      <trkpt lat="45.43612" lon="7.00538">
        <ele>2440</ele>
        <time>2009-07-05T09:41:30Z</time>
      </trkpt>
      <trkpt lat="45.43715" lon="7.00608">
        <ele>2419</ele>
        <time>2009-07-05T09:41:49Z</time>
      </trkpt>
      <trkpt lat="45.43718" lon="7.00624">
        <ele>2419</ele>
        <time>2009-07-05T09:41:51Z</time>
      </trkpt>
      <trkpt lat="45.43711" lon="7.00633">
        <ele>2453</ele>
        <time>2009-07-05T09:41:52Z</time>
      </trkpt>
      <trkpt lat="45.43699" lon="7.00634">
        <ele>2479</ele>
        <time>2009-07-05T09:41:54Z</time>
      </trkpt>
      <trkpt lat="45.43655" lon="7.00598">
        <ele>2452</ele>
        <time>2009-07-05T09:42:02Z</time>
      </trkpt>
      <trkpt lat="45.43609" lon="7.00584">
        <ele>2469</ele>
        <time>2009-07-05T09:42:10Z</time>
      </trkpt>
      <trkpt lat="45.43549" lon="7.00554">
        <ele>2469</ele>
        <time>2009-07-05T09:42:20Z</time>
      </trkpt>
      <trkpt lat="45.43506" lon="7.0056">
        <ele>2478</ele>
        <time>2009-07-05T09:42:27Z</time>
      </trkpt>
      <trkpt lat="45.43463" lon="7.00584">
        <ele>2478</ele>
        <time>2009-07-05T09:42:34Z</time>
      </trkpt>
      <trkpt lat="45.43413" lon="7.00578">
        <ele>2481</ele>
        <time>2009-07-05T09:42:42Z</time>
      </trkpt>
      <trkpt lat="45.43406" lon="7.00586">
        <ele>2481</ele>
        <time>2009-07-05T09:42:44Z</time>
      </trkpt>
      <trkpt lat="45.43408" lon="7.00596">
        <ele>2481</ele>
        <time>2009-07-05T09:42:45Z</time>
      </trkpt>
      <trkpt lat="45.43415" lon="7.00603">
        <ele>2481</ele>
        <time>2009-07-05T09:42:46Z</time>
      </trkpt>
      <trkpt lat="45.43453" lon="7.00613">
        <ele>2481</ele>
        <time>2009-07-05T09:42:52Z</time>
      </trkpt>
      <trkpt lat="45.43477" lon="7.0061">
        <ele>2478</ele>
        <time>2009-07-05T09:42:56Z</time>
      </trkpt>
      <trkpt lat="45.43506" lon="7.00593">
        <ele>2478</ele>
        <time>2009-07-05T09:43:01Z</time>
      </trkpt>
      <trkpt lat="45.43526" lon="7.00591">
        <ele>2478</ele>
        <time>2009-07-05T09:43:04Z</time>
      </trkpt>
      <trkpt lat="45.43535" lon="7.00596">
        <ele>2478</ele>
        <time>2009-07-05T09:43:06Z</time>
      </trkpt>
      <trkpt lat="45.4355" lon="7.00623">
        <ele>2469</ele>
        <time>2009-07-05T09:43:10Z</time>
      </trkpt>
      <trkpt lat="45.43568" lon="7.00645">
        <ele>2500</ele>
        <time>2009-07-05T09:43:14Z</time>
      </trkpt>
      <trkpt lat="45.43605" lon="7.00661">
        <ele>2500</ele>
        <time>2009-07-05T09:43:20Z</time>
      </trkpt>
      <trkpt lat="45.43663" lon="7.00737">
        <ele>2503</ele>
        <time>2009-07-05T09:43:32Z</time>
      </trkpt>
      <trkpt lat="45.43714" lon="7.00828">
        <ele>2498</ele>
        <time>2009-07-05T09:43:46Z</time>
      </trkpt>
      <trkpt lat="45.43774" lon="7.00893">
        <ele>2525</ele>
        <time>2009-07-05T09:43:58Z</time>
      </trkpt>
      <trkpt lat="45.43818" lon="7.00931">
        <ele>2496</ele>
        <time>2009-07-05T09:44:06Z</time>
      </trkpt>
      <trkpt lat="45.43844" lon="7.0096">
        <ele>2520</ele>
        <time>2009-07-05T09:44:11Z</time>
      </trkpt>
      <trkpt lat="45.43853" lon="7.00993">
        <ele>2520</ele>
        <time>2009-07-05T09:44:15Z</time>
      </trkpt>
      <trkpt lat="45.43852" lon="7.01022">
        <ele>2520</ele>
        <time>2009-07-05T09:44:18Z</time>
      </trkpt>
      <trkpt lat="45.43843" lon="7.01036">
        <ele>2520</ele>
        <time>2009-07-05T09:44:20Z</time>
      </trkpt>
      <trkpt lat="45.43832" lon="7.01035">
        <ele>2520</ele>
        <time>2009-07-05T09:44:22Z</time>
      </trkpt>
      <trkpt lat="45.43808" lon="7.01021">
        <ele>2520</ele>
        <time>2009-07-05T09:44:26Z</time>
      </trkpt>
      <trkpt lat="45.43795" lon="7.01019">
        <ele>2520</ele>
        <time>2009-07-05T09:44:29Z</time>
      </trkpt>
      <trkpt lat="45.43788" lon="7.01024">
        <ele>2546</ele>
        <time>2009-07-05T09:44:30Z</time>
      </trkpt>
      <trkpt lat="45.43726" lon="7.01165">
        <ele>2537</ele>
        <time>2009-07-05T09:44:48Z</time>
      </trkpt>
      <trkpt lat="45.43707" lon="7.01196">
        <ele>2567</ele>
        <time>2009-07-05T09:44:53Z</time>
      </trkpt>
      <trkpt lat="45.43697" lon="7.01247">
        <ele>2558</ele>
        <time>2009-07-05T09:44:59Z</time>
      </trkpt>
      <trkpt lat="45.43685" lon="7.01272">
        <ele>2558</ele>
        <time>2009-07-05T09:45:02Z</time>
      </trkpt>
      <trkpt lat="45.43603" lon="7.01377">
        <ele>2552</ele>
        <time>2009-07-05T09:45:20Z</time>
      </trkpt>
      <trkpt lat="45.43581" lon="7.01388">
        <ele>2552</ele>
        <time>2009-07-05T09:45:24Z</time>
      </trkpt>
      <trkpt lat="45.43525" lon="7.01382">
        <ele>2565</ele>
        <time>2009-07-05T09:45:33Z</time>
      </trkpt>
      <trkpt lat="45.43452" lon="7.0146">
        <ele>2573</ele>
        <time>2009-07-05T09:45:47Z</time>
      </trkpt>
      <trkpt lat="45.43384" lon="7.01507">
        <ele>2573</ele>
        <time>2009-07-05T09:46:00Z</time>
      </trkpt>
      <trkpt lat="45.43368" lon="7.01532">
        <ele>2600</ele>
        <time>2009-07-05T09:46:03Z</time>
      </trkpt>
      <trkpt lat="45.43322" lon="7.01653">
        <ele>2571</ele>
        <time>2009-07-05T09:46:19Z</time>
      </trkpt>
      <trkpt lat="45.43291" lon="7.0171">
        <ele>2583</ele>
        <time>2009-07-05T09:46:27Z</time>
      </trkpt>
      <trkpt lat="45.43223" lon="7.01774">
        <ele>2583</ele>
        <time>2009-07-05T09:46:40Z</time>
      </trkpt>
      <trkpt lat="45.43122" lon="7.01848">
        <ele>2614</ele>
        <time>2009-07-05T09:46:58Z</time>
      </trkpt>
      <trkpt lat="45.43053" lon="7.01892">
        <ele>2583</ele>
        <time>2009-07-05T09:47:10Z</time>
      </trkpt>
      <trkpt lat="45.43002" lon="7.01933">
        <ele>2614</ele>
        <time>2009-07-05T09:47:20Z</time>
      </trkpt>
      <trkpt lat="45.42965" lon="7.01983">
        <ele>2595</ele>
        <time>2009-07-05T09:47:28Z</time>
      </trkpt>
      <trkpt lat="45.42919" lon="7.0206">
        <ele>2609</ele>
        <time>2009-07-05T09:47:39Z</time>
      </trkpt>
      <trkpt lat="45.42895" lon="7.02089">
        <ele>2609</ele>
        <time>2009-07-05T09:47:44Z</time>
      </trkpt>
      <trkpt lat="45.42864" lon="7.02114">
        <ele>2629</ele>
        <time>2009-07-05T09:47:50Z</time>
      </trkpt>
      <trkpt lat="45.42732" lon="7.02172">
        <ele>2625</ele>
        <time>2009-07-05T09:48:12Z</time>
      </trkpt>
      <trkpt lat="45.42663" lon="7.02216">
        <ele>2625</ele>
        <time>2009-07-05T09:48:24Z</time>
      </trkpt>
      <trkpt lat="45.42609" lon="7.0226">
        <ele>2639</ele>
        <time>2009-07-05T09:48:34Z</time>
      </trkpt>
      <trkpt lat="45.42576" lon="7.02266">
        <ele>2639</ele>
        <time>2009-07-05T09:48:39Z</time>
      </trkpt>
      <trkpt lat="45.42427" lon="7.02265">
        <ele>2653</ele>
        <time>2009-07-05T09:49:03Z</time>
      </trkpt>
      <trkpt lat="45.42409" lon="7.0227">
        <ele>2653</ele>
        <time>2009-07-05T09:49:06Z</time>
      </trkpt>
      <trkpt lat="45.42387" lon="7.02284">
        <ele>2653</ele>
        <time>2009-07-05T09:49:10Z</time>
      </trkpt>
      <trkpt lat="45.42364" lon="7.02317">
        <ele>2663</ele>
        <time>2009-07-05T09:49:15Z</time>
      </trkpt>
      <trkpt lat="45.42357" lon="7.02333">
        <ele>2663</ele>
        <time>2009-07-05T09:49:17Z</time>
      </trkpt>
      <trkpt lat="45.42354" lon="7.02359">
        <ele>2663</ele>
        <time>2009-07-05T09:49:20Z</time>
      </trkpt>
      <trkpt lat="45.42365" lon="7.02443">
        <ele>2666</ele>
        <time>2009-07-05T09:49:30Z</time>
      </trkpt>
      <trkpt lat="45.42365" lon="7.02466">
        <ele>2672</ele>
        <time>2009-07-05T09:49:33Z</time>
      </trkpt>
      <trkpt lat="45.42336" lon="7.02603">
        <ele>2669</ele>
        <time>2009-07-05T09:49:49Z</time>
      </trkpt>
      <trkpt lat="45.42336" lon="7.0263">
        <ele>2679</ele>
        <time>2009-07-05T09:49:52Z</time>
      </trkpt>
      <trkpt lat="45.42343" lon="7.02682">
        <ele>2679</ele>
        <time>2009-07-05T09:49:58Z</time>
      </trkpt>
      <trkpt lat="45.42305" lon="7.02778">
        <ele>2680</ele>
        <time>2009-07-05T09:50:10Z</time>
      </trkpt>
      <trkpt lat="45.42258" lon="7.02849">
        <ele>2694</ele>
        <time>2009-07-05T09:50:21Z</time>
      </trkpt>
      <trkpt lat="45.42231" lon="7.02869">
        <ele>2694</ele>
        <time>2009-07-05T09:50:26Z</time>
      </trkpt>
      <trkpt lat="45.42209" lon="7.02865">
        <ele>2694</ele>
        <time>2009-07-05T09:50:29Z</time>
      </trkpt>
      <trkpt lat="45.42174" lon="7.02825">
        <ele>2699</ele>
        <time>2009-07-05T09:50:37Z</time>
      </trkpt>
      <trkpt lat="45.4211" lon="7.02734">
        <ele>2706</ele>
        <time>2009-07-05T09:50:51Z</time>
      </trkpt>
      <trkpt lat="45.42105" lon="7.0273">
        <ele>2706</ele>
        <time>2009-07-05T09:50:52Z</time>
      </trkpt>
      <trkpt lat="45.42089" lon="7.02731">
        <ele>2706</ele>
        <time>2009-07-05T09:50:55Z</time>
      </trkpt>
      <trkpt lat="45.42077" lon="7.02745">
        <ele>2706</ele>
        <time>2009-07-05T09:50:57Z</time>
      </trkpt>
      <trkpt lat="45.42041" lon="7.02835">
        <ele>2714</ele>
        <time>2009-07-05T09:51:09Z</time>
      </trkpt>
      <trkpt lat="45.42024" lon="7.02858">
        <ele>2714</ele>
        <time>2009-07-05T09:51:12Z</time>
      </trkpt>
      <trkpt lat="45.41982" lon="7.02864">
        <ele>2714</ele>
        <time>2009-07-05T09:51:19Z</time>
      </trkpt>
      <trkpt lat="45.419" lon="7.02861">
        <ele>2723</ele>
        <time>2009-07-05T09:51:32Z</time>
      </trkpt>
      <trkpt lat="45.41874" lon="7.02869">
        <ele>2730</ele>
        <time>2009-07-05T09:51:37Z</time>
      </trkpt>
      <trkpt lat="45.41871" lon="7.02875">
        <ele>2730</ele>
        <time>2009-07-05T09:51:37Z</time>
      </trkpt>
      <trkpt lat="45.41874" lon="7.02889">
        <ele>2740</ele>
        <time>2009-07-05T09:51:39Z</time>
      </trkpt>
      <trkpt lat="45.41912" lon="7.02918">
        <ele>2731</ele>
        <time>2009-07-05T09:51:46Z</time>
      </trkpt>
      <trkpt lat="45.41933" lon="7.02978">
        <ele>2746</ele>
        <time>2009-07-05T09:51:53Z</time>
      </trkpt>
      <trkpt lat="45.41934" lon="7.02999">
        <ele>2746</ele>
        <time>2009-07-05T09:51:56Z</time>
      </trkpt>
      <trkpt lat="45.41922" lon="7.03003">
        <ele>2746</ele>
        <time>2009-07-05T09:51:58Z</time>
      </trkpt>
      <trkpt lat="45.41902" lon="7.02969">
        <ele>2746</ele>
        <time>2009-07-05T09:52:03Z</time>
      </trkpt>
      <trkpt lat="45.41873" lon="7.02961">
        <ele>2752</ele>
        <time>2009-07-05T09:52:08Z</time>
      </trkpt>
      <trkpt lat="45.41853" lon="7.02975">
        <ele>2752</ele>
        <time>2009-07-05T09:52:11Z</time>
      </trkpt>
      <trkpt lat="45.41833" lon="7.03015">
        <ele>2752</ele>
        <time>2009-07-05T09:52:17Z</time>
      </trkpt>
      <trkpt lat="45.41815" lon="7.03031">
        <ele>2752</ele>
        <time>2009-07-05T09:52:20Z</time>
      </trkpt>
      <trkpt lat="45.41728" lon="7.03056">
        <ele>2763</ele>
        <time>2009-07-05T09:52:34Z</time>
      </trkpt>
      <trkpt lat="45.41708" lon="7.03076">
        <ele>2761</ele>
        <time>2009-07-05T09:52:38Z</time>
      </trkpt>
      <trkpt lat="45.41696" lon="7.03114">
        <ele>2761</ele>
        <time>2009-07-05T09:52:43Z</time>
      </trkpt>
      <trkpt lat="45.41694" lon="7.03139">
        <ele>2754</ele>
        <time>2009-07-05T09:52:46Z</time>
      </trkpt>
      <trkpt lat="45.41699" lon="7.03165">
        <ele>2754</ele>
        <time>2009-07-05T09:52:49Z</time>
      </trkpt>
      <trkpt lat="45.41716" lon="7.03181">
        <ele>2759</ele>
        <time>2009-07-05T09:52:52Z</time>
      </trkpt>
      <trkpt lat="45.41764" lon="7.032">
        <ele>2759</ele>
        <time>2009-07-05T09:53:00Z</time>
      </trkpt>
      <trkpt lat="45.41807" lon="7.03228">
        <ele>2752</ele>
        <time>2009-07-05T09:53:07Z</time>
      </trkpt>
      <trkpt lat="45.41859" lon="7.03273">
        <ele>2752</ele>
        <time>2009-07-05T09:53:17Z</time>
      </trkpt>
      <trkpt lat="45.41868" lon="7.03287">
        <ele>2752</ele>
        <time>2009-07-05T09:53:19Z</time>
      </trkpt>
      <trkpt lat="45.41883" lon="7.03327">
        <ele>2754</ele>
        <time>2009-07-05T09:53:24Z</time>
      </trkpt>
      <trkpt lat="45.41902" lon="7.03466">
        <ele>2725</ele>
        <time>2009-07-05T09:53:40Z</time>
      </trkpt>
      <trkpt lat="45.41915" lon="7.03508">
        <ele>2725</ele>
        <time>2009-07-05T09:53:46Z</time>
      </trkpt>
      <trkpt lat="45.42014" lon="7.03659">
        <ele>2708</ele>
        <time>2009-07-05T09:54:09Z</time>
      </trkpt>
      <trkpt lat="45.42053" lon="7.03701">
        <ele>2738</ele>
        <time>2009-07-05T09:54:17Z</time>
      </trkpt>
      <trkpt lat="45.42071" lon="7.03734">
        <ele>2721</ele>
        <time>2009-07-05T09:54:21Z</time>
      </trkpt>
      <trkpt lat="45.42069" lon="7.0375">
        <ele>2721</ele>
        <time>2009-07-05T09:54:23Z</time>
      </trkpt>
      <trkpt lat="45.42063" lon="7.03753">
        <ele>2721</ele>
        <time>2009-07-05T09:54:24Z</time>
      </trkpt>
      <trkpt lat="45.42053" lon="7.03748">
        <ele>2721</ele>
        <time>2009-07-05T09:54:26Z</time>
      </trkpt>
      <trkpt lat="45.4199" lon="7.0366">
        <ele>2708</ele>
        <time>2009-07-05T09:54:40Z</time>
      </trkpt>
      <trkpt lat="45.41942" lon="7.0363">
        <ele>2681</ele>
        <time>2009-07-05T09:54:48Z</time>
      </trkpt>
      <trkpt lat="45.41902" lon="7.03613">
        <ele>2703</ele>
        <time>2009-07-05T09:54:55Z</time>
      </trkpt>
      <trkpt lat="45.41833" lon="7.03536">
        <ele>2698</ele>
        <time>2009-07-05T09:55:09Z</time>
      </trkpt>
      <trkpt lat="45.4181" lon="7.03516">
        <ele>2698</ele>
        <time>2009-07-05T09:55:13Z</time>
      </trkpt>
      <trkpt lat="45.41753" lon="7.03506">
        <ele>2674</ele>
        <time>2009-07-05T09:55:23Z</time>
      </trkpt>
      <trkpt lat="45.41724" lon="7.03494">
        <ele>2674</ele>
        <time>2009-07-05T09:55:27Z</time>
      </trkpt>
      <trkpt lat="45.41662" lon="7.03413">
        <ele>2664</ele>
        <time>2009-07-05T09:55:41Z</time>
      </trkpt>
      <trkpt lat="45.41551" lon="7.03346">
        <ele>2660</ele>
        <time>2009-07-05T09:56:00Z</time>
      </trkpt>
      <trkpt lat="45.41528" lon="7.03301">
        <ele>2632</ele>
        <time>2009-07-05T09:56:06Z</time>
      </trkpt>
      <trkpt lat="45.41447" lon="7.03238">
        <ele>2620</ele>
        <time>2009-07-05T09:56:21Z</time>
      </trkpt>
      <trkpt lat="45.41429" lon="7.03212">
        <ele>2620</ele>
        <time>2009-07-05T09:56:25Z</time>
      </trkpt>
      <trkpt lat="45.41342" lon="7.03054">
        <ele>2613</ele>
        <time>2009-07-05T09:56:48Z</time>
      </trkpt>
      <trkpt lat="45.41323" lon="7.03027">
        <ele>2633</ele>
        <time>2009-07-05T09:56:52Z</time>
      </trkpt>
      <trkpt lat="45.41259" lon="7.02972">
        <ele>2599</ele>
        <time>2009-07-05T09:57:04Z</time>
      </trkpt>
      <trkpt lat="45.41212" lon="7.02945">
        <ele>2622</ele>
        <time>2009-07-05T09:57:12Z</time>
      </trkpt>
      <trkpt lat="45.41117" lon="7.02904">
        <ele>2573</ele>
        <time>2009-07-05T09:57:28Z</time>
      </trkpt>
      <trkpt lat="45.41084" lon="7.0287">
        <ele>2588</ele>
        <time>2009-07-05T09:57:35Z</time>
      </trkpt>
      <trkpt lat="45.4101" lon="7.02762">
        <ele>2574</ele>
        <time>2009-07-05T09:57:52Z</time>
      </trkpt>
      <trkpt lat="45.41" lon="7.02753">
        <ele>2574</ele>
        <time>2009-07-05T09:57:54Z</time>
      </trkpt>
      <trkpt lat="45.40967" lon="7.02739">
        <ele>2574</ele>
        <time>2009-07-05T09:57:59Z</time>
      </trkpt>
      <trkpt lat="45.40946" lon="7.02743">
        <ele>2558</ele>
        <time>2009-07-05T09:58:02Z</time>
      </trkpt>
      <trkpt lat="45.40899" lon="7.02772">
        <ele>2558</ele>
        <time>2009-07-05T09:58:11Z</time>
      </trkpt>
      <trkpt lat="45.40862" lon="7.02783">
        <ele>2553</ele>
        <time>2009-07-05T09:58:17Z</time>
      </trkpt>
      <trkpt lat="45.4081" lon="7.02766">
        <ele>2553</ele>
        <time>2009-07-05T09:58:25Z</time>
      </trkpt>
      <trkpt lat="45.40753" lon="7.02776">
        <ele>2541</ele>
        <time>2009-07-05T09:58:34Z</time>
      </trkpt>
      <trkpt lat="45.40716" lon="7.02766">
        <ele>2541</ele>
        <time>2009-07-05T09:58:40Z</time>
      </trkpt>
      <trkpt lat="45.40672" lon="7.02763">
        <ele>2537</ele>
        <time>2009-07-05T09:58:48Z</time>
      </trkpt>
      <trkpt lat="45.40655" lon="7.02771">
        <ele>2537</ele>
        <time>2009-07-05T09:58:50Z</time>
      </trkpt>
      <trkpt lat="45.40632" lon="7.02801">
        <ele>2526</ele>
        <time>2009-07-05T09:58:55Z</time>
      </trkpt>
      <trkpt lat="45.40599" lon="7.02889">
        <ele>2531</ele>
        <time>2009-07-05T09:59:07Z</time>
      </trkpt>
      <trkpt lat="45.40532" lon="7.02931">
        <ele>2511</ele>
        <time>2009-07-05T09:59:18Z</time>
      </trkpt>
      <trkpt lat="45.40503" lon="7.02971">
        <ele>2515</ele>
        <time>2009-07-05T09:59:25Z</time>
      </trkpt>
      <trkpt lat="45.40479" lon="7.03016">
        <ele>2515</ele>
        <time>2009-07-05T09:59:31Z</time>
      </trkpt>
      <trkpt lat="45.40474" lon="7.03048">
        <ele>2534</ele>
        <time>2009-07-05T09:59:35Z</time>
      </trkpt>
      <trkpt lat="45.4048" lon="7.03097">
        <ele>2534</ele>
        <time>2009-07-05T09:59:40Z</time>
      </trkpt>
      <trkpt lat="45.40477" lon="7.03116">
        <ele>2534</ele>
        <time>2009-07-05T09:59:43Z</time>
      </trkpt>
      <trkpt lat="45.40464" lon="7.03144">
        <ele>2552</ele>
        <time>2009-07-05T09:59:46Z</time>
      </trkpt>
      <trkpt lat="45.40429" lon="7.03196">
        <ele>2499</ele>
        <time>2009-07-05T09:59:54Z</time>
      </trkpt>
      <trkpt lat="45.40418" lon="7.03206">
        <ele>2499</ele>
        <time>2009-07-05T09:59:57Z</time>
      </trkpt>
      <trkpt lat="45.40364" lon="7.03232">
        <ele>2486</ele>
        <time>2009-07-05T10:00:06Z</time>
      </trkpt>
      <trkpt lat="45.40329" lon="7.03274">
        <ele>2486</ele>
        <time>2009-07-05T10:00:13Z</time>
      </trkpt>
      <trkpt lat="45.40302" lon="7.03322">
        <ele>2523</ele>
        <time>2009-07-05T10:00:20Z</time>
      </trkpt>
      <trkpt lat="45.40247" lon="7.03511">
        <ele>2502</ele>
        <time>2009-07-05T10:00:43Z</time>
      </trkpt>
      <trkpt lat="45.40237" lon="7.03534">
        <ele>2502</ele>
        <time>2009-07-05T10:00:46Z</time>
      </trkpt>
      <trkpt lat="45.40225" lon="7.03549">
        <ele>2522</ele>
        <time>2009-07-05T10:00:49Z</time>
      </trkpt>
      <trkpt lat="45.4018" lon="7.03582">
        <ele>2462</ele>
        <time>2009-07-05T10:00:57Z</time>
      </trkpt>
      <trkpt lat="45.40156" lon="7.03612">
        <ele>2462</ele>
        <time>2009-07-05T10:01:02Z</time>
      </trkpt>
      <trkpt lat="45.40147" lon="7.03638">
        <ele>2481</ele>
        <time>2009-07-05T10:01:05Z</time>
      </trkpt>
      <trkpt lat="45.40152" lon="7.03721">
        <ele>2505</ele>
        <time>2009-07-05T10:01:14Z</time>
      </trkpt>
      <trkpt lat="45.40149" lon="7.0376">
        <ele>2505</ele>
        <time>2009-07-05T10:01:19Z</time>
      </trkpt>
      <trkpt lat="45.40138" lon="7.03792">
        <ele>2527</ele>
        <time>2009-07-05T10:01:23Z</time>
      </trkpt>
      <trkpt lat="45.40111" lon="7.03828">
        <ele>2460</ele>
        <time>2009-07-05T10:01:29Z</time>
      </trkpt>
      <trkpt lat="45.40105" lon="7.03873">
        <ele>2460</ele>
        <time>2009-07-05T10:01:34Z</time>
      </trkpt>
      <trkpt lat="45.40088" lon="7.03913">
        <ele>2471</ele>
        <time>2009-07-05T10:01:39Z</time>
      </trkpt>
      <trkpt lat="45.40095" lon="7.03956">
        <ele>2471</ele>
        <time>2009-07-05T10:01:44Z</time>
      </trkpt>
      <trkpt lat="45.40071" lon="7.04033">
        <ele>2484</ele>
        <time>2009-07-05T10:01:54Z</time>
      </trkpt>
      <trkpt lat="45.4004" lon="7.04196">
        <ele>2459</ele>
        <time>2009-07-05T10:02:13Z</time>
      </trkpt>
      <trkpt lat="45.40021" lon="7.04226">
        <ele>2476</ele>
        <time>2009-07-05T10:02:17Z</time>
      </trkpt>
      <trkpt lat="45.3997" lon="7.04268">
        <ele>2476</ele>
        <time>2009-07-05T10:02:27Z</time>
      </trkpt>
      <trkpt lat="45.39922" lon="7.04341">
        <ele>2474</ele>
        <time>2009-07-05T10:02:38Z</time>
      </trkpt>
      <trkpt lat="45.39904" lon="7.04349">
        <ele>2474</ele>
        <time>2009-07-05T10:02:41Z</time>
      </trkpt>
      <trkpt lat="45.39893" lon="7.04347">
        <ele>2474</ele>
        <time>2009-07-05T10:02:43Z</time>
      </trkpt>
      <trkpt lat="45.39838" lon="7.04323">
        <ele>2473</ele>
        <time>2009-07-05T10:02:52Z</time>
      </trkpt>
      <trkpt lat="45.39794" lon="7.04313">
        <ele>2473</ele>
        <time>2009-07-05T10:02:59Z</time>
      </trkpt>
      <trkpt lat="45.39712" lon="7.04276">
        <ele>2444</ele>
        <time>2009-07-05T10:03:13Z</time>
      </trkpt>
      <trkpt lat="45.39657" lon="7.04257">
        <ele>2448</ele>
        <time>2009-07-05T10:03:22Z</time>
      </trkpt>
      <trkpt lat="45.39622" lon="7.04251">
        <ele>2428</ele>
        <time>2009-07-05T10:03:27Z</time>
      </trkpt>
      <trkpt lat="45.39599" lon="7.04253">
        <ele>2428</ele>
        <time>2009-07-05T10:03:31Z</time>
      </trkpt>
      <trkpt lat="45.39549" lon="7.04272">
        <ele>2428</ele>
        <time>2009-07-05T10:03:39Z</time>
      </trkpt>
      <trkpt lat="45.39527" lon="7.04293">
        <ele>2426</ele>
        <time>2009-07-05T10:03:44Z</time>
      </trkpt>
      <trkpt lat="45.39472" lon="7.04375">
        <ele>2426</ele>
        <time>2009-07-05T10:03:56Z</time>
      </trkpt>
      <trkpt lat="45.39457" lon="7.0439">
        <ele>2416</ele>
        <time>2009-07-05T10:03:59Z</time>
      </trkpt>
      <trkpt lat="45.39434" lon="7.04404">
        <ele>2416</ele>
        <time>2009-07-05T10:04:03Z</time>
      </trkpt>
      <trkpt lat="45.39404" lon="7.04405">
        <ele>2416</ele>
        <time>2009-07-05T10:04:08Z</time>
      </trkpt>
      <trkpt lat="45.39391" lon="7.04411">
        <ele>2416</ele>
        <time>2009-07-05T10:04:10Z</time>
      </trkpt>
      <trkpt lat="45.39337" lon="7.04453">
        <ele>2399</ele>
        <time>2009-07-05T10:04:20Z</time>
      </trkpt>
      <trkpt lat="45.39287" lon="7.04514">
        <ele>2393</ele>
        <time>2009-07-05T10:04:31Z</time>
      </trkpt>
      <trkpt lat="45.39253" lon="7.04525">
        <ele>2393</ele>
        <time>2009-07-05T10:04:36Z</time>
      </trkpt>
      <trkpt lat="45.39241" lon="7.04536">
        <ele>2393</ele>
        <time>2009-07-05T10:04:39Z</time>
      </trkpt>
      <trkpt lat="45.39215" lon="7.0458">
        <ele>2411</ele>
        <time>2009-07-05T10:04:45Z</time>
      </trkpt>
      <trkpt lat="45.39201" lon="7.04596">
        <ele>2383</ele>
        <time>2009-07-05T10:04:48Z</time>
      </trkpt>
      <trkpt lat="45.39183" lon="7.04607">
        <ele>2383</ele>
        <time>2009-07-05T10:04:51Z</time>
      </trkpt>
      <trkpt lat="45.39153" lon="7.04613">
        <ele>2383</ele>
        <time>2009-07-05T10:04:56Z</time>
      </trkpt>
      <trkpt lat="45.39138" lon="7.04622">
        <ele>2383</ele>
        <time>2009-07-05T10:04:58Z</time>
      </trkpt>
      <trkpt lat="45.39096" lon="7.0467">
        <ele>2383</ele>
        <time>2009-07-05T10:05:07Z</time>
      </trkpt>
      <trkpt lat="45.39052" lon="7.04732">
        <ele>2401</ele>
        <time>2009-07-05T10:05:17Z</time>
      </trkpt>
      <trkpt lat="45.39015" lon="7.04754">
        <ele>2369</ele>
        <time>2009-07-05T10:05:23Z</time>
      </trkpt>
      <trkpt lat="45.38988" lon="7.04749">
        <ele>2369</ele>
        <time>2009-07-05T10:05:28Z</time>
      </trkpt>
      <trkpt lat="45.38976" lon="7.04741">
        <ele>2369</ele>
        <time>2009-07-05T10:05:30Z</time>
      </trkpt>
      <trkpt lat="45.38963" lon="7.04712">
        <ele>2369</ele>
        <time>2009-07-05T10:05:34Z</time>
      </trkpt>
      <trkpt lat="45.38964" lon="7.04689">
        <ele>2365</ele>
        <time>2009-07-05T10:05:36Z</time>
      </trkpt>
      <trkpt lat="45.39072" lon="7.0453">
        <ele>2341</ele>
        <time>2009-07-05T10:06:01Z</time>
      </trkpt>
      <trkpt lat="45.3912" lon="7.04434">
        <ele>2312</ele>
        <time>2009-07-05T10:06:14Z</time>
      </trkpt>
      <trkpt lat="45.39173" lon="7.04387">
        <ele>2346</ele>
        <time>2009-07-05T10:06:24Z</time>
      </trkpt>
      <trkpt lat="45.39272" lon="7.04271">
        <ele>2299</ele>
        <time>2009-07-05T10:06:45Z</time>
      </trkpt>
      <trkpt lat="45.39457" lon="7.04128">
        <ele>2323</ele>
        <time>2009-07-05T10:07:19Z</time>
      </trkpt>
      <trkpt lat="45.39531" lon="7.04083">
        <ele>2303</ele>
        <time>2009-07-05T10:07:32Z</time>
      </trkpt>
      <trkpt lat="45.39638" lon="7.04031">
        <ele>2297</ele>
        <time>2009-07-05T10:07:50Z</time>
      </trkpt>
      <trkpt lat="45.39666" lon="7.04002">
        <ele>2297</ele>
        <time>2009-07-05T10:07:55Z</time>
      </trkpt>
      <trkpt lat="45.3967" lon="7.03987">
        <ele>2297</ele>
        <time>2009-07-05T10:07:57Z</time>
      </trkpt>
      <trkpt lat="45.39666" lon="7.03974">
        <ele>2297</ele>
        <time>2009-07-05T10:07:59Z</time>
      </trkpt>
      <trkpt lat="45.39659" lon="7.03965">
        <ele>2297</ele>
        <time>2009-07-05T10:08:00Z</time>
      </trkpt>
      <trkpt lat="45.39625" lon="7.03965">
        <ele>2297</ele>
        <time>2009-07-05T10:08:06Z</time>
      </trkpt>
      <trkpt lat="45.3942" lon="7.0403">
        <ele>2258</ele>
        <time>2009-07-05T10:08:39Z</time>
      </trkpt>
      <trkpt lat="45.39365" lon="7.04031">
        <ele>2244</ele>
        <time>2009-07-05T10:08:48Z</time>
      </trkpt>
      <trkpt lat="45.39327" lon="7.04041">
        <ele>2244</ele>
        <time>2009-07-05T10:08:54Z</time>
      </trkpt>
      <trkpt lat="45.39309" lon="7.04067">
        <ele>2260</ele>
        <time>2009-07-05T10:08:58Z</time>
      </trkpt>
      <trkpt lat="45.39292" lon="7.04103">
        <ele>2260</ele>
        <time>2009-07-05T10:09:03Z</time>
      </trkpt>
      <trkpt lat="45.39272" lon="7.04122">
        <ele>2238</ele>
        <time>2009-07-05T10:09:07Z</time>
      </trkpt>
      <trkpt lat="45.39032" lon="7.04223">
        <ele>2223</ele>
        <time>2009-07-05T10:09:47Z</time>
      </trkpt>
      <trkpt lat="45.38986" lon="7.0425">
        <ele>2223</ele>
        <time>2009-07-05T10:09:55Z</time>
      </trkpt>
      <trkpt lat="45.38951" lon="7.04261">
        <ele>2198</ele>
        <time>2009-07-05T10:10:01Z</time>
      </trkpt>
      <trkpt lat="45.38889" lon="7.04324">
        <ele>2221</ele>
        <time>2009-07-05T10:10:13Z</time>
      </trkpt>
      <trkpt lat="45.38679" lon="7.04503">
        <ele>2183</ele>
        <time>2009-07-05T10:10:52Z</time>
      </trkpt>
      <trkpt lat="45.38634" lon="7.04536">
        <ele>2183</ele>
        <time>2009-07-05T10:11:00Z</time>
      </trkpt>
      <trkpt lat="45.38603" lon="7.04548">
        <ele>2173</ele>
        <time>2009-07-05T10:11:05Z</time>
      </trkpt>
      <trkpt lat="45.38563" lon="7.04583">
        <ele>2173</ele>
        <time>2009-07-05T10:11:13Z</time>
      </trkpt>
      <trkpt lat="45.38529" lon="7.04601">
        <ele>2155</ele>
        <time>2009-07-05T10:11:19Z</time>
      </trkpt>
      <trkpt lat="45.38513" lon="7.04597">
        <ele>2155</ele>
        <time>2009-07-05T10:11:21Z</time>
      </trkpt>
      <trkpt lat="45.38507" lon="7.0459">
        <ele>2155</ele>
        <time>2009-07-05T10:11:23Z</time>
      </trkpt>
      <trkpt lat="45.38503" lon="7.0457">
        <ele>2155</ele>
        <time>2009-07-05T10:11:25Z</time>
      </trkpt>
      <trkpt lat="45.38532" lon="7.04473">
        <ele>2148</ele>
        <time>2009-07-05T10:11:37Z</time>
      </trkpt>
      <trkpt lat="45.38539" lon="7.04421">
        <ele>2140</ele>
        <time>2009-07-05T10:11:43Z</time>
      </trkpt>
      <trkpt lat="45.38537" lon="7.04351">
        <ele>2136</ele>
        <time>2009-07-05T10:11:51Z</time>
      </trkpt>
      <trkpt lat="45.38532" lon="7.04332">
        <ele>2136</ele>
        <time>2009-07-05T10:11:53Z</time>
      </trkpt>
      <trkpt lat="45.38513" lon="7.04302">
        <ele>2136</ele>
        <time>2009-07-05T10:11:57Z</time>
      </trkpt>
      <trkpt lat="45.38488" lon="7.04289">
        <ele>2133</ele>
        <time>2009-07-05T10:12:02Z</time>
      </trkpt>
      <trkpt lat="45.38468" lon="7.04292">
        <ele>2136</ele>
        <time>2009-07-05T10:12:05Z</time>
      </trkpt>
      <trkpt lat="45.38443" lon="7.04319">
        <ele>2143</ele>
        <time>2009-07-05T10:12:10Z</time>
      </trkpt>
      <trkpt lat="45.38362" lon="7.04476">
        <ele>2133</ele>
        <time>2009-07-05T10:12:32Z</time>
      </trkpt>
      <trkpt lat="45.38297" lon="7.0456">
        <ele>2126</ele>
        <time>2009-07-05T10:12:46Z</time>
      </trkpt>
      <trkpt lat="45.38272" lon="7.04621">
        <ele>2141</ele>
        <time>2009-07-05T10:12:54Z</time>
      </trkpt>
      <trkpt lat="45.38243" lon="7.0465">
        <ele>2123</ele>
        <time>2009-07-05T10:13:00Z</time>
      </trkpt>
      <trkpt lat="45.38188" lon="7.04688">
        <ele>2135</ele>
        <time>2009-07-05T10:13:09Z</time>
      </trkpt>
      <trkpt lat="45.3814" lon="7.04745">
        <ele>2119</ele>
        <time>2009-07-05T10:13:19Z</time>
      </trkpt>
      <trkpt lat="45.38133" lon="7.04827">
        <ele>2110</ele>
        <time>2009-07-05T10:13:29Z</time>
      </trkpt>
      <trkpt lat="45.38127" lon="7.04858">
        <ele>2110</ele>
        <time>2009-07-05T10:13:32Z</time>
      </trkpt>
      <trkpt lat="45.38105" lon="7.0492">
        <ele>2117</ele>
        <time>2009-07-05T10:13:40Z</time>
      </trkpt>
      <trkpt lat="45.38074" lon="7.04977">
        <ele>2107</ele>
        <time>2009-07-05T10:13:48Z</time>
      </trkpt>
      <trkpt lat="45.38051" lon="7.05005">
        <ele>2107</ele>
        <time>2009-07-05T10:13:53Z</time>
      </trkpt>
      <trkpt lat="45.38031" lon="7.05018">
        <ele>2122</ele>
        <time>2009-07-05T10:13:57Z</time>
      </trkpt>
      <trkpt lat="45.38012" lon="7.05025">
        <ele>2122</ele>
        <time>2009-07-05T10:14:00Z</time>
      </trkpt>
      <trkpt lat="45.37977" lon="7.05026">
        <ele>2122</ele>
        <time>2009-07-05T10:14:05Z</time>
      </trkpt>
      <trkpt lat="45.37911" lon="7.05012">
        <ele>2117</ele>
        <time>2009-07-05T10:14:16Z</time>
      </trkpt>
      <trkpt lat="45.37895" lon="7.05003">
        <ele>2117</ele>
        <time>2009-07-05T10:14:19Z</time>
      </trkpt>
      <trkpt lat="45.37863" lon="7.0497">
        <ele>2087</ele>
        <time>2009-07-05T10:14:25Z</time>
      </trkpt>
      <trkpt lat="45.3781" lon="7.04884">
        <ele>2108</ele>
        <time>2009-07-05T10:14:38Z</time>
      </trkpt>
      <trkpt lat="45.37728" lon="7.04706">
        <ele>2121</ele>
        <time>2009-07-05T10:15:02Z</time>
      </trkpt>
      <trkpt lat="45.37714" lon="7.04664">
        <ele>2121</ele>
        <time>2009-07-05T10:15:07Z</time>
      </trkpt>
      <trkpt lat="45.37683" lon="7.04514">
        <ele>2095</ele>
        <time>2009-07-05T10:15:25Z</time>
      </trkpt>
      <trkpt lat="45.3755" lon="7.04125">
        <ele>2100</ele>
        <time>2009-07-05T10:16:13Z</time>
      </trkpt>
      <trkpt lat="45.37496" lon="7.03984">
        <ele>2045</ele>
        <time>2009-07-05T10:16:31Z</time>
      </trkpt>
      <trkpt lat="45.37441" lon="7.03883">
        <ele>2008</ele>
        <time>2009-07-05T10:16:46Z</time>
      </trkpt>
      <trkpt lat="45.37395" lon="7.03779">
        <ele>2027</ele>
        <time>2009-07-05T10:17:00Z</time>
      </trkpt>
      <trkpt lat="45.3737" lon="7.03695">
        <ele>1999</ele>
        <time>2009-07-05T10:17:10Z</time>
      </trkpt>
      <trkpt lat="45.37352" lon="7.03667">
        <ele>1999</ele>
        <time>2009-07-05T10:17:14Z</time>
      </trkpt>
      <trkpt lat="45.37355" lon="7.03641">
        <ele>1999</ele>
        <time>2009-07-05T10:17:17Z</time>
      </trkpt>
      <trkpt lat="45.37333" lon="7.03572">
        <ele>2003</ele>
        <time>2009-07-05T10:17:26Z</time>
      </trkpt>
      <trkpt lat="45.37329" lon="7.03554">
        <ele>2003</ele>
        <time>2009-07-05T10:17:28Z</time>
      </trkpt>
      <trkpt lat="45.37327" lon="7.03503">
        <ele>2010</ele>
        <time>2009-07-05T10:17:34Z</time>
      </trkpt>
      <trkpt lat="45.37315" lon="7.03462">
        <ele>2010</ele>
        <time>2009-07-05T10:17:39Z</time>
      </trkpt>
      <trkpt lat="45.37291" lon="7.03432">
        <ele>1987</ele>
        <time>2009-07-05T10:17:44Z</time>
      </trkpt>
      <trkpt lat="45.37184" lon="7.03356">
        <ele>1978</ele>
        <time>2009-07-05T10:18:03Z</time>
      </trkpt>
      <trkpt lat="45.37155" lon="7.03323">
        <ele>1978</ele>
        <time>2009-07-05T10:18:09Z</time>
      </trkpt>
      <trkpt lat="45.37127" lon="7.03282">
        <ele>2002</ele>
        <time>2009-07-05T10:18:15Z</time>
      </trkpt>
      <trkpt lat="45.37104" lon="7.0326">
        <ele>1971</ele>
        <time>2009-07-05T10:18:20Z</time>
      </trkpt>
      <trkpt lat="45.37038" lon="7.0322">
        <ele>1945</ele>
        <time>2009-07-05T10:18:31Z</time>
      </trkpt>
      <trkpt lat="45.37006" lon="7.03217">
        <ele>1945</ele>
        <time>2009-07-05T10:18:36Z</time>
      </trkpt>
      <trkpt lat="45.37002" lon="7.03233">
        <ele>1945</ele>
        <time>2009-07-05T10:18:38Z</time>
      </trkpt>
      <trkpt lat="45.37005" lon="7.03256">
        <ele>1945</ele>
        <time>2009-07-05T10:18:41Z</time>
      </trkpt>
      <trkpt lat="45.37026" lon="7.03284">
        <ele>1945</ele>
        <time>2009-07-05T10:18:45Z</time>
      </trkpt>
      <trkpt lat="45.37055" lon="7.03306">
        <ele>1945</ele>
        <time>2009-07-05T10:18:51Z</time>
      </trkpt>
      <trkpt lat="45.37079" lon="7.03333">
        <ele>1945</ele>
        <time>2009-07-05T10:18:56Z</time>
      </trkpt>
      <trkpt lat="45.37117" lon="7.03445">
        <ele>1924</ele>
        <time>2009-07-05T10:19:10Z</time>
      </trkpt>
      <trkpt lat="45.37174" lon="7.0354">
        <ele>1933</ele>
        <time>2009-07-05T10:19:24Z</time>
      </trkpt>
      <trkpt lat="45.37183" lon="7.03561">
        <ele>1915</ele>
        <time>2009-07-05T10:19:26Z</time>
      </trkpt>
      <trkpt lat="45.37221" lon="7.03809">
        <ele>1927</ele>
        <time>2009-07-05T10:19:55Z</time>
      </trkpt>
      <trkpt lat="45.37248" lon="7.03868">
        <ele>1927</ele>
        <time>2009-07-05T10:20:03Z</time>
      </trkpt>
      <trkpt lat="45.37261" lon="7.03908">
        <ele>1903</ele>
        <time>2009-07-05T10:20:08Z</time>
      </trkpt>
      <trkpt lat="45.37271" lon="7.03961">
        <ele>1881</ele>
        <time>2009-07-05T10:20:14Z</time>
      </trkpt>
      <trkpt lat="45.3729" lon="7.04027">
        <ele>1881</ele>
        <time>2009-07-05T10:20:22Z</time>
      </trkpt>
      <trkpt lat="45.37294" lon="7.04076">
        <ele>1915</ele>
        <time>2009-07-05T10:20:28Z</time>
      </trkpt>
      <trkpt lat="45.37348" lon="7.04277">
        <ele>1884</ele>
        <time>2009-07-05T10:20:52Z</time>
      </trkpt>
      <trkpt lat="45.37377" lon="7.04469">
        <ele>1909</ele>
        <time>2009-07-05T10:21:14Z</time>
      </trkpt>
      <trkpt lat="45.37378" lon="7.04501">
        <ele>1909</ele>
        <time>2009-07-05T10:21:17Z</time>
      </trkpt>
      <trkpt lat="45.37364" lon="7.0462">
        <ele>1840</ele>
        <time>2009-07-05T10:21:31Z</time>
      </trkpt>
      <trkpt lat="45.37366" lon="7.0471">
        <ele>1829</ele>
        <time>2009-07-05T10:21:41Z</time>
      </trkpt>
      <trkpt lat="45.37369" lon="7.04742">
        <ele>1829</ele>
        <time>2009-07-05T10:21:45Z</time>
      </trkpt>
      <trkpt lat="45.37427" lon="7.05046">
        <ele>1824</ele>
        <time>2009-07-05T10:22:20Z</time>
      </trkpt>
      <trkpt lat="45.37434" lon="7.05121">
        <ele>1824</ele>
        <time>2009-07-05T10:22:29Z</time>
      </trkpt>
      <trkpt lat="45.37432" lon="7.05213">
        <ele>1818</ele>
        <time>2009-07-05T10:22:39Z</time>
      </trkpt>
      <trkpt lat="45.37428" lon="7.05234">
        <ele>1818</ele>
        <time>2009-07-05T10:22:41Z</time>
      </trkpt>
      <trkpt lat="45.3742" lon="7.05251">
        <ele>1818</ele>
        <time>2009-07-05T10:22:44Z</time>
      </trkpt>
      <trkpt lat="45.37413" lon="7.05261">
        <ele>1818</ele>
        <time>2009-07-05T10:22:45Z</time>
      </trkpt>
      <trkpt lat="45.37388" lon="7.05279">
        <ele>1818</ele>
        <time>2009-07-05T10:22:50Z</time>
      </trkpt>
      <trkpt lat="45.37348" lon="7.05279">
        <ele>1803</ele>
        <time>2009-07-05T10:22:56Z</time>
      </trkpt>
      <trkpt lat="45.37315" lon="7.05264">
        <ele>1803</ele>
        <time>2009-07-05T10:23:02Z</time>
      </trkpt>
      <trkpt lat="45.37304" lon="7.05253">
        <ele>1803</ele>
        <time>2009-07-05T10:23:04Z</time>
      </trkpt>
      <trkpt lat="45.3728" lon="7.05213">
        <ele>1798</ele>
        <time>2009-07-05T10:23:10Z</time>
      </trkpt>
      <trkpt lat="45.37246" lon="7.05127">
        <ele>1795</ele>
        <time>2009-07-05T10:23:21Z</time>
      </trkpt>
      <trkpt lat="45.37122" lon="7.04846">
        <ele>1790</ele>
        <time>2009-07-05T10:23:58Z</time>
      </trkpt>
      <trkpt lat="45.37054" lon="7.04663">
        <ele>1787</ele>
        <time>2009-07-05T10:24:22Z</time>
      </trkpt>
      <trkpt lat="45.36946" lon="7.04296">
        <ele>1782</ele>
        <time>2009-07-05T10:25:06Z</time>
      </trkpt>
      <trkpt lat="45.36924" lon="7.04251">
        <ele>1782</ele>
        <time>2009-07-05T10:25:13Z</time>
      </trkpt>
      <trkpt lat="45.3689" lon="7.04199">
        <ele>1780</ele>
        <time>2009-07-05T10:25:21Z</time>
      </trkpt>
      <trkpt lat="45.36761" lon="7.04034">
        <ele>1781</ele>
        <time>2009-07-05T10:25:48Z</time>
      </trkpt>
      <trkpt lat="45.3663" lon="7.03893">
        <ele>1778</ele>
        <time>2009-07-05T10:26:15Z</time>
      </trkpt>
      <trkpt lat="45.36339" lon="7.03601">
        <ele>1778</ele>
        <time>2009-07-05T10:27:12Z</time>
      </trkpt>
      <trkpt lat="45.36312" lon="7.03542">
        <ele>1778</ele>
        <time>2009-07-05T10:27:20Z</time>
      </trkpt>
      <trkpt lat="45.36299" lon="7.03527">
        <ele>1770</ele>
        <time>2009-07-05T10:27:22Z</time>
      </trkpt>
      <trkpt lat="45.36202" lon="7.03468">
        <ele>1786</ele>
        <time>2009-07-05T10:27:39Z</time>
      </trkpt>
      <trkpt lat="45.36004" lon="7.03259">
        <ele>1767</ele>
        <time>2009-07-05T10:28:19Z</time>
      </trkpt>
      <trkpt lat="45.35924" lon="7.03187">
        <ele>1766</ele>
        <time>2009-07-05T10:28:34Z</time>
      </trkpt>
      <trkpt lat="45.35717" lon="7.03035">
        <ele>1762</ele>
        <time>2009-07-05T10:29:11Z</time>
      </trkpt>
      <trkpt lat="45.3564" lon="7.02989">
        <ele>1771</ele>
        <time>2009-07-05T10:29:24Z</time>
      </trkpt>
      <trkpt lat="45.35617" lon="7.02986">
        <ele>1773</ele>
        <time>2009-07-05T10:29:28Z</time>
      </trkpt>
      <trkpt lat="45.3555" lon="7.0299">
        <ele>1773</ele>
        <time>2009-07-05T10:29:39Z</time>
      </trkpt>
      <trkpt lat="45.3532" lon="7.03012">
        <ele>1760</ele>
        <time>2009-07-05T10:30:16Z</time>
      </trkpt>
      <trkpt lat="45.35145" lon="7.03019">
        <ele>1755</ele>
        <time>2009-07-05T10:30:44Z</time>
      </trkpt>
      <trkpt lat="45.34841" lon="7.02992">
        <ele>1755</ele>
        <time>2009-07-05T10:31:33Z</time>
      </trkpt>
      <trkpt lat="45.34575" lon="7.02955">
        <ele>1749</ele>
        <time>2009-07-05T10:32:15Z</time>
      </trkpt>
      <trkpt lat="45.34505" lon="7.02923">
        <ele>1752</ele>
        <time>2009-07-05T10:32:27Z</time>
      </trkpt>
      <trkpt lat="45.34321" lon="7.02815">
        <ele>1749</ele>
        <time>2009-07-05T10:32:59Z</time>
      </trkpt>
      <trkpt lat="45.34078" lon="7.02634">
        <ele>1752</ele>
        <time>2009-07-05T10:33:43Z</time>
      </trkpt>
      <trkpt lat="45.34012" lon="7.0257">
        <ele>1749</ele>
        <time>2009-07-05T10:33:56Z</time>
      </trkpt>
      <trkpt lat="45.33963" lon="7.02512">
        <ele>1745</ele>
        <time>2009-07-05T10:34:06Z</time>
      </trkpt>
      <trkpt lat="45.33883" lon="7.02398">
        <ele>1744</ele>
        <time>2009-07-05T10:34:24Z</time>
      </trkpt>
      <trkpt lat="45.33856" lon="7.02367">
        <ele>1742</ele>
        <time>2009-07-05T10:34:30Z</time>
      </trkpt>
      <trkpt lat="45.33813" lon="7.02332">
        <ele>1742</ele>
        <time>2009-07-05T10:34:38Z</time>
      </trkpt>
      <trkpt lat="45.33584" lon="7.02097">
        <ele>1738</ele>
        <time>2009-07-05T10:35:23Z</time>
      </trkpt>
      <trkpt lat="45.33396" lon="7.01884">
        <ele>1737</ele>
        <time>2009-07-05T10:36:01Z</time>
      </trkpt>
      <trkpt lat="45.3316" lon="7.01632">
        <ele>1734</ele>
        <time>2009-07-05T10:36:48Z</time>
      </trkpt>
      <trkpt lat="45.33092" lon="7.01542">
        <ele>1735</ele>
        <time>2009-07-05T10:37:03Z</time>
      </trkpt>
      <trkpt lat="45.33022" lon="7.01417">
        <ele>1745</ele>
        <time>2009-07-05T10:37:21Z</time>
      </trkpt>
      <trkpt lat="45.32946" lon="7.01169">
        <ele>1742</ele>
        <time>2009-07-05T10:37:52Z</time>
      </trkpt>
      <trkpt lat="45.32875" lon="7.00992">
        <ele>1733</ele>
        <time>2009-07-05T10:38:15Z</time>
      </trkpt>
      <trkpt lat="45.32832" lon="7.00896">
        <ele>1733</ele>
        <time>2009-07-05T10:38:28Z</time>
      </trkpt>
      <trkpt lat="45.32741" lon="7.00704">
        <ele>1728</ele>
        <time>2009-07-05T10:38:54Z</time>
      </trkpt>
      <trkpt lat="45.32631" lon="7.00487">
        <ele>1738</ele>
        <time>2009-07-05T10:39:24Z</time>
      </trkpt>
      <trkpt lat="45.32554" lon="7.00354">
        <ele>1735</ele>
        <time>2009-07-05T10:39:43Z</time>
      </trkpt>
      <trkpt lat="45.32434" lon="7.00239">
        <ele>1733</ele>
        <time>2009-07-05T10:40:06Z</time>
      </trkpt>
      <trkpt lat="45.32297" lon="7.0012">
        <ele>1733</ele>
        <time>2009-07-05T10:40:32Z</time>
      </trkpt>
      <trkpt lat="45.31373" lon="6.9921">
        <ele>1745</ele>
        <time>2009-07-05T10:43:32Z</time>
      </trkpt>
      <trkpt lat="45.31293" lon="6.99136">
        <ele>1742</ele>
        <time>2009-07-05T10:43:47Z</time>
      </trkpt>
      <trkpt lat="45.31278" lon="6.99116">
        <ele>1742</ele>
        <time>2009-07-05T10:43:51Z</time>
      </trkpt>
      <trkpt lat="45.31228" lon="6.98953">
        <ele>1735</ele>
        <time>2009-07-05T10:44:11Z</time>
      </trkpt>
      <trkpt lat="45.31211" lon="6.98885">
        <ele>1735</ele>
        <time>2009-07-05T10:44:19Z</time>
      </trkpt>
      <trkpt lat="45.31219" lon="6.98831">
        <ele>1740</ele>
        <time>2009-07-05T10:44:25Z</time>
      </trkpt>
      <trkpt lat="45.31241" lon="6.98752">
        <ele>1741</ele>
        <time>2009-07-05T10:44:34Z</time>
      </trkpt>
      <trkpt lat="45.31245" lon="6.98709">
        <ele>1741</ele>
        <time>2009-07-05T10:44:39Z</time>
      </trkpt>
      <trkpt lat="45.31242" lon="6.98685">
        <ele>1736</ele>
        <time>2009-07-05T10:44:42Z</time>
      </trkpt>
      <trkpt lat="45.31227" lon="6.98644">
        <ele>1736</ele>
        <time>2009-07-05T10:44:47Z</time>
      </trkpt>
      <trkpt lat="45.30896" lon="6.9789">
        <ele>1708</ele>
        <time>2009-07-05T10:46:27Z</time>
      </trkpt>
      <trkpt lat="45.30862" lon="6.97802">
        <ele>1707</ele>
        <time>2009-07-05T10:46:39Z</time>
      </trkpt>
      <trkpt lat="45.3085" lon="6.97746">
        <ele>1693</ele>
        <time>2009-07-05T10:46:45Z</time>
      </trkpt>
      <trkpt lat="45.30853" lon="6.97723">
        <ele>1693</ele>
        <time>2009-07-05T10:46:48Z</time>
      </trkpt>
      <trkpt lat="45.30849" lon="6.97634">
        <ele>1687</ele>
        <time>2009-07-05T10:46:58Z</time>
      </trkpt>
      <trkpt lat="45.30912" lon="6.97357">
        <ele>1683</ele>
        <time>2009-07-05T10:47:31Z</time>
      </trkpt>
      <trkpt lat="45.30919" lon="6.973">
        <ele>1683</ele>
        <time>2009-07-05T10:47:37Z</time>
      </trkpt>
      <trkpt lat="45.30914" lon="6.9725">
        <ele>1683</ele>
        <time>2009-07-05T10:47:43Z</time>
      </trkpt>
      <trkpt lat="45.30903" lon="6.97213">
        <ele>1683</ele>
        <time>2009-07-05T10:47:47Z</time>
      </trkpt>
      <trkpt lat="45.30883" lon="6.97171">
        <ele>1683</ele>
        <time>2009-07-05T10:47:53Z</time>
      </trkpt>
      <trkpt lat="45.30692" lon="6.96821">
        <ele>1676</ele>
        <time>2009-07-05T10:48:43Z</time>
      </trkpt>
      <trkpt lat="45.30658" lon="6.96699">
        <ele>1678</ele>
        <time>2009-07-05T10:48:58Z</time>
      </trkpt>
      <trkpt lat="45.30646" lon="6.96564">
        <ele>1679</ele>
        <time>2009-07-05T10:49:13Z</time>
      </trkpt>
      <trkpt lat="45.30638" lon="6.96369">
        <ele>1680</ele>
        <time>2009-07-05T10:49:35Z</time>
      </trkpt>
      <trkpt lat="45.30645" lon="6.962">
        <ele>1682</ele>
        <time>2009-07-05T10:49:54Z</time>
      </trkpt>
      <trkpt lat="45.30645" lon="6.9605">
        <ele>1685</ele>
        <time>2009-07-05T10:50:11Z</time>
      </trkpt>
      <trkpt lat="45.30637" lon="6.9598">
        <ele>1684</ele>
        <time>2009-07-05T10:50:19Z</time>
      </trkpt>
      <trkpt lat="45.30608" lon="6.95858">
        <ele>1687</ele>
        <time>2009-07-05T10:50:34Z</time>
      </trkpt>
      <trkpt lat="45.30584" lon="6.95799">
        <ele>1687</ele>
        <time>2009-07-05T10:50:41Z</time>
      </trkpt>
      <trkpt lat="45.30541" lon="6.95745">
        <ele>1678</ele>
        <time>2009-07-05T10:50:50Z</time>
      </trkpt>
      <trkpt lat="45.30471" lon="6.95694">
        <ele>1692</ele>
        <time>2009-07-05T10:51:03Z</time>
      </trkpt>
      <trkpt lat="45.3038" lon="6.95643">
        <ele>1689</ele>
        <time>2009-07-05T10:51:19Z</time>
      </trkpt>
      <trkpt lat="45.30343" lon="6.95611">
        <ele>1702</ele>
        <time>2009-07-05T10:51:26Z</time>
      </trkpt>
      <trkpt lat="45.30308" lon="6.95573">
        <ele>1702</ele>
        <time>2009-07-05T10:51:33Z</time>
      </trkpt>
      <trkpt lat="45.30291" lon="6.95544">
        <ele>1690</ele>
        <time>2009-07-05T10:51:37Z</time>
      </trkpt>
      <trkpt lat="45.30287" lon="6.95529">
        <ele>1702</ele>
        <time>2009-07-05T10:51:39Z</time>
      </trkpt>
      <trkpt lat="45.30262" lon="6.95352">
        <ele>1717</ele>
        <time>2009-07-05T10:51:59Z</time>
      </trkpt>
      <trkpt lat="45.30247" lon="6.95324">
        <ele>1717</ele>
        <time>2009-07-05T10:52:03Z</time>
      </trkpt>
      <trkpt lat="45.30231" lon="6.9531">
        <ele>1717</ele>
        <time>2009-07-05T10:52:06Z</time>
      </trkpt>
      <trkpt lat="45.30218" lon="6.95306">
        <ele>1717</ele>
        <time>2009-07-05T10:52:08Z</time>
      </trkpt>
      <trkpt lat="45.30193" lon="6.95304">
        <ele>1721</ele>
        <time>2009-07-05T10:52:12Z</time>
      </trkpt>
      <trkpt lat="45.30141" lon="6.95315">
        <ele>1721</ele>
        <time>2009-07-05T10:52:21Z</time>
      </trkpt>
      <trkpt lat="45.30128" lon="6.95315">
        <ele>1721</ele>
        <time>2009-07-05T10:52:23Z</time>
      </trkpt>
      <trkpt lat="45.30114" lon="6.95308">
        <ele>1719</ele>
        <time>2009-07-05T10:52:25Z</time>
      </trkpt>
      <trkpt lat="45.30105" lon="6.953">
        <ele>1719</ele>
        <time>2009-07-05T10:52:27Z</time>
      </trkpt>
      <trkpt lat="45.30096" lon="6.95283">
        <ele>1730</ele>
        <time>2009-07-05T10:52:29Z</time>
      </trkpt>
      <trkpt lat="45.30075" lon="6.95209">
        <ele>1730</ele>
        <time>2009-07-05T10:52:38Z</time>
      </trkpt>
      <trkpt lat="45.3006" lon="6.95118">
        <ele>1739</ele>
        <time>2009-07-05T10:52:49Z</time>
      </trkpt>
      <trkpt lat="45.30046" lon="6.95071">
        <ele>1739</ele>
        <time>2009-07-05T10:52:54Z</time>
      </trkpt>
      <trkpt lat="45.30032" lon="6.94982">
        <ele>1733</ele>
        <time>2009-07-05T10:53:05Z</time>
      </trkpt>
      <trkpt lat="45.30044" lon="6.949">
        <ele>1757</ele>
        <time>2009-07-05T10:53:14Z</time>
      </trkpt>
      <trkpt lat="45.30083" lon="6.948">
        <ele>1753</ele>
        <time>2009-07-05T10:53:27Z</time>
      </trkpt>
      <trkpt lat="45.30102" lon="6.94727">
        <ele>1742</ele>
        <time>2009-07-05T10:53:36Z</time>
      </trkpt>
      <trkpt lat="45.30106" lon="6.94692">
        <ele>1737</ele>
        <time>2009-07-05T10:53:40Z</time>
      </trkpt>
      <trkpt lat="45.30108" lon="6.94651">
        <ele>1737</ele>
        <time>2009-07-05T10:53:44Z</time>
      </trkpt>
      <trkpt lat="45.30089" lon="6.94387">
        <ele>1731</ele>
        <time>2009-07-05T10:54:14Z</time>
      </trkpt>
      <trkpt lat="45.30079" lon="6.94316">
        <ele>1727</ele>
        <time>2009-07-05T10:54:22Z</time>
      </trkpt>
      <trkpt lat="45.30041" lon="6.94214">
        <ele>1722</ele>
        <time>2009-07-05T10:54:35Z</time>
      </trkpt>
      <trkpt lat="45.30018" lon="6.94174">
        <ele>1718</ele>
        <time>2009-07-05T10:54:41Z</time>
      </trkpt>
      <trkpt lat="45.29935" lon="6.94054">
        <ele>1712</ele>
        <time>2009-07-05T10:55:00Z</time>
      </trkpt>
      <trkpt lat="45.29924" lon="6.9403">
        <ele>1717</ele>
        <time>2009-07-05T10:55:03Z</time>
      </trkpt>
      <trkpt lat="45.29922" lon="6.94015">
        <ele>1717</ele>
        <time>2009-07-05T10:55:05Z</time>
      </trkpt>
      <trkpt lat="45.29925" lon="6.9398">
        <ele>1717</ele>
        <time>2009-07-05T10:55:09Z</time>
      </trkpt>
      <trkpt lat="45.29963" lon="6.93872">
        <ele>1700</ele>
        <time>2009-07-05T10:55:23Z</time>
      </trkpt>
      <trkpt lat="45.29983" lon="6.93803">
        <ele>1700</ele>
        <time>2009-07-05T10:55:31Z</time>
      </trkpt>
      <trkpt lat="45.29987" lon="6.93769">
        <ele>1700</ele>
        <time>2009-07-05T10:55:35Z</time>
      </trkpt>
      <trkpt lat="45.29969" lon="6.93619">
        <ele>1706</ele>
        <time>2009-07-05T10:55:52Z</time>
      </trkpt>
      <trkpt lat="45.29949" lon="6.93535">
        <ele>1686</ele>
        <time>2009-07-05T10:56:02Z</time>
      </trkpt>
      <trkpt lat="45.29944" lon="6.93525">
        <ele>1686</ele>
        <time>2009-07-05T10:56:04Z</time>
      </trkpt>
      <trkpt lat="45.29929" lon="6.93515">
        <ele>1686</ele>
        <time>2009-07-05T10:56:06Z</time>
      </trkpt>
      <trkpt lat="45.2992" lon="6.93514">
        <ele>1686</ele>
        <time>2009-07-05T10:56:08Z</time>
      </trkpt>
      <trkpt lat="45.299" lon="6.93523">
        <ele>1686</ele>
        <time>2009-07-05T10:56:11Z</time>
      </trkpt>
      <trkpt lat="45.29881" lon="6.93541">
        <ele>1686</ele>
        <time>2009-07-05T10:56:15Z</time>
      </trkpt>
      <trkpt lat="45.29831" lon="6.93605">
        <ele>1678</ele>
        <time>2009-07-05T10:56:25Z</time>
      </trkpt>
      <trkpt lat="45.29814" lon="6.93616">
        <ele>1678</ele>
        <time>2009-07-05T10:56:28Z</time>
      </trkpt>
      <trkpt lat="45.2978" lon="6.93623">
        <ele>1662</ele>
        <time>2009-07-05T10:56:34Z</time>
      </trkpt>
      <trkpt lat="45.29742" lon="6.93673">
        <ele>1681</ele>
        <time>2009-07-05T10:56:42Z</time>
      </trkpt>
      <trkpt lat="45.29733" lon="6.93679">
        <ele>1681</ele>
        <time>2009-07-05T10:56:44Z</time>
      </trkpt>
      <trkpt lat="45.29718" lon="6.93679">
        <ele>1681</ele>
        <time>2009-07-05T10:56:46Z</time>
      </trkpt>
      <trkpt lat="45.29703" lon="6.93667">
        <ele>1663</ele>
        <time>2009-07-05T10:56:49Z</time>
      </trkpt>
      <trkpt lat="45.29695" lon="6.93654">
        <ele>1663</ele>
        <time>2009-07-05T10:56:51Z</time>
      </trkpt>
      <trkpt lat="45.2969" lon="6.93627">
        <ele>1663</ele>
        <time>2009-07-05T10:56:54Z</time>
      </trkpt>
      <trkpt lat="45.29696" lon="6.93604">
        <ele>1653</ele>
        <time>2009-07-05T10:56:57Z</time>
      </trkpt>
      <trkpt lat="45.29732" lon="6.93574">
        <ele>1662</ele>
        <time>2009-07-05T10:57:03Z</time>
      </trkpt>
      <trkpt lat="45.29793" lon="6.93543">
        <ele>1678</ele>
        <time>2009-07-05T10:57:14Z</time>
      </trkpt>
      <trkpt lat="45.29804" lon="6.93532">
        <ele>1667</ele>
        <time>2009-07-05T10:57:16Z</time>
      </trkpt>
      <trkpt lat="45.29812" lon="6.9351">
        <ele>1667</ele>
        <time>2009-07-05T10:57:19Z</time>
      </trkpt>
      <trkpt lat="45.29815" lon="6.9346">
        <ele>1667</ele>
        <time>2009-07-05T10:57:24Z</time>
      </trkpt>
      <trkpt lat="45.29812" lon="6.93404">
        <ele>1660</ele>
        <time>2009-07-05T10:57:31Z</time>
      </trkpt>
      <trkpt lat="45.29804" lon="6.93371">
        <ele>1660</ele>
        <time>2009-07-05T10:57:35Z</time>
      </trkpt>
      <trkpt lat="45.29789" lon="6.93339">
        <ele>1646</ele>
        <time>2009-07-05T10:57:39Z</time>
      </trkpt>
      <trkpt lat="45.29774" lon="6.93321">
        <ele>1646</ele>
        <time>2009-07-05T10:57:42Z</time>
      </trkpt>
      <trkpt lat="45.29757" lon="6.93314">
        <ele>1646</ele>
        <time>2009-07-05T10:57:45Z</time>
      </trkpt>
      <trkpt lat="45.29731" lon="6.93315">
        <ele>1646</ele>
        <time>2009-07-05T10:57:49Z</time>
      </trkpt>
      <trkpt lat="45.29715" lon="6.93322">
        <ele>1646</ele>
        <time>2009-07-05T10:57:52Z</time>
      </trkpt>
      <trkpt lat="45.29681" lon="6.93351">
        <ele>1640</ele>
        <time>2009-07-05T10:57:58Z</time>
      </trkpt>
      <trkpt lat="45.29645" lon="6.93409">
        <ele>1642</ele>
        <time>2009-07-05T10:58:07Z</time>
      </trkpt>
      <trkpt lat="45.29624" lon="6.93434">
        <ele>1630</ele>
        <time>2009-07-05T10:58:11Z</time>
      </trkpt>
      <trkpt lat="45.29605" lon="6.93438">
        <ele>1630</ele>
        <time>2009-07-05T10:58:14Z</time>
      </trkpt>
      <trkpt lat="45.29556" lon="6.93415">
        <ele>1630</ele>
        <time>2009-07-05T10:58:23Z</time>
      </trkpt>
      <trkpt lat="45.29512" lon="6.93376">
        <ele>1610</ele>
        <time>2009-07-05T10:58:31Z</time>
      </trkpt>
      <trkpt lat="45.29484" lon="6.93332">
        <ele>1622</ele>
        <time>2009-07-05T10:58:38Z</time>
      </trkpt>
      <trkpt lat="45.29447" lon="6.93252">
        <ele>1598</ele>
        <time>2009-07-05T10:58:48Z</time>
      </trkpt>
      <trkpt lat="45.29386" lon="6.93091">
        <ele>1618</ele>
        <time>2009-07-05T10:59:09Z</time>
      </trkpt>
      <trkpt lat="45.29369" lon="6.92994">
        <ele>1574</ele>
        <time>2009-07-05T10:59:20Z</time>
      </trkpt>
      <trkpt lat="45.2937" lon="6.92928">
        <ele>1575</ele>
        <time>2009-07-05T10:59:28Z</time>
      </trkpt>
      <trkpt lat="45.29374" lon="6.92911">
        <ele>1575</ele>
        <time>2009-07-05T10:59:30Z</time>
      </trkpt>
      <trkpt lat="45.2945" lon="6.92807">
        <ele>1582</ele>
        <time>2009-07-05T10:59:47Z</time>
      </trkpt>
      <trkpt lat="45.29485" lon="6.92732">
        <ele>1589</ele>
        <time>2009-07-05T10:59:57Z</time>
      </trkpt>
      <trkpt lat="45.29494" lon="6.92698">
        <ele>1587</ele>
        <time>2009-07-05T11:00:01Z</time>
      </trkpt>
      <trkpt lat="45.29493" lon="6.92674">
        <ele>1587</ele>
        <time>2009-07-05T11:00:04Z</time>
      </trkpt>
      <trkpt lat="45.29485" lon="6.92649">
        <ele>1587</ele>
        <time>2009-07-05T11:00:07Z</time>
      </trkpt>
      <trkpt lat="45.29479" lon="6.92642">
        <ele>1587</ele>
        <time>2009-07-05T11:00:08Z</time>
      </trkpt>
      <trkpt lat="45.29436" lon="6.92649">
        <ele>1560</ele>
        <time>2009-07-05T11:00:15Z</time>
      </trkpt>
      <trkpt lat="45.29416" lon="6.9264">
        <ele>1560</ele>
        <time>2009-07-05T11:00:18Z</time>
      </trkpt>
      <trkpt lat="45.29411" lon="6.92618">
        <ele>1556</ele>
        <time>2009-07-05T11:00:21Z</time>
      </trkpt>
      <trkpt lat="45.2942" lon="6.92576">
        <ele>1556</ele>
        <time>2009-07-05T11:00:26Z</time>
      </trkpt>
      <trkpt lat="45.29423" lon="6.92451">
        <ele>1549</ele>
        <time>2009-07-05T11:00:40Z</time>
      </trkpt>
      <trkpt lat="45.29418" lon="6.92445">
        <ele>1549</ele>
        <time>2009-07-05T11:00:41Z</time>
      </trkpt>
      <trkpt lat="45.29386" lon="6.92439">
        <ele>1549</ele>
        <time>2009-07-05T11:00:46Z</time>
      </trkpt>
      <trkpt lat="45.29368" lon="6.9243">
        <ele>1531</ele>
        <time>2009-07-05T11:00:49Z</time>
      </trkpt>
      <trkpt lat="45.29341" lon="6.92395">
        <ele>1531</ele>
        <time>2009-07-05T11:00:55Z</time>
      </trkpt>
      <trkpt lat="45.29332" lon="6.92374">
        <ele>1526</ele>
        <time>2009-07-05T11:00:58Z</time>
      </trkpt>
      <trkpt lat="45.29334" lon="6.92345">
        <ele>1526</ele>
        <time>2009-07-05T11:01:01Z</time>
      </trkpt>
      <trkpt lat="45.29343" lon="6.92324">
        <ele>1526</ele>
        <time>2009-07-05T11:01:04Z</time>
      </trkpt>
      <trkpt lat="45.29363" lon="6.92299">
        <ele>1526</ele>
        <time>2009-07-05T11:01:08Z</time>
      </trkpt>
      <trkpt lat="45.29368" lon="6.92284">
        <ele>1520</ele>
        <time>2009-07-05T11:01:10Z</time>
      </trkpt>
      <trkpt lat="45.29369" lon="6.92261">
        <ele>1520</ele>
        <time>2009-07-05T11:01:13Z</time>
      </trkpt>
      <trkpt lat="45.29365" lon="6.92256">
        <ele>1520</ele>
        <time>2009-07-05T11:01:13Z</time>
      </trkpt>
      <trkpt lat="45.29331" lon="6.92247">
        <ele>1520</ele>
        <time>2009-07-05T11:01:19Z</time>
      </trkpt>
      <trkpt lat="45.29324" lon="6.92237">
        <ele>1520</ele>
        <time>2009-07-05T11:01:20Z</time>
      </trkpt>
      <trkpt lat="45.29313" lon="6.9217">
        <ele>1514</ele>
        <time>2009-07-05T11:01:28Z</time>
      </trkpt>
      <trkpt lat="45.29293" lon="6.92108">
        <ele>1507</ele>
        <time>2009-07-05T11:01:36Z</time>
      </trkpt>
      <trkpt lat="45.29197" lon="6.91974">
        <ele>1493</ele>
        <time>2009-07-05T11:01:57Z</time>
      </trkpt>
      <trkpt lat="45.29166" lon="6.91909">
        <ele>1483</ele>
        <time>2009-07-05T11:02:06Z</time>
      </trkpt>
      <trkpt lat="45.29151" lon="6.91825">
        <ele>1478</ele>
        <time>2009-07-05T11:02:16Z</time>
      </trkpt>
      <trkpt lat="45.29144" lon="6.9166">
        <ele>1472</ele>
        <time>2009-07-05T11:02:35Z</time>
      </trkpt>
      <trkpt lat="45.29138" lon="6.91605">
        <ele>1471</ele>
        <time>2009-07-05T11:02:41Z</time>
      </trkpt>
    </trkseg>
  </trk>
</gpx>